﻿<?xml version="1.0" encoding="utf-8"?><gpx creator="Garmin Desktop App" version="1.1" xsi:schemaLocation="http://www.topografix.com/GPX/1/1 http://www.topografix.com/GPX/1/1/gpx.xsd http://www.garmin.com/xmlschemas/WaypointExtension/v1 http://www8.garmin.com/xmlschemas/WaypointExtensionv1.xsd http://www.garmin.com/xmlschemas/TrackPointExtension/v1 http://www.garmin.com/xmlschemas/TrackPointExtensionv1.xsd http://www.garmin.com/xmlschemas/GpxExtensions/v3 http://www8.garmin.com/xmlschemas/GpxExtensionsv3.xsd http://www.garmin.com/xmlschemas/ActivityExtension/v1 http://www8.garmin.com/xmlschemas/ActivityExtensionv1.xsd http://www.garmin.com/xmlschemas/AdventuresExtensions/v1 http://www8.garmin.com/xmlschemas/AdventuresExtensionv1.xsd http://www.garmin.com/xmlschemas/PressureExtension/v1 http://www.garmin.com/xmlschemas/PressureExtensionv1.xsd http://www.garmin.com/xmlschemas/TripExtensions/v1 http://www.garmin.com/xmlschemas/TripExtensionsv1.xsd http://www.garmin.com/xmlschemas/TripMetaDataExtensions/v1 http://www.garmin.com/xmlschemas/TripMetaDataExtensionsv1.xsd http://www.garmin.com/xmlschemas/ViaPointTransportationModeExtensions/v1 http://www.garmin.com/xmlschemas/ViaPointTransportationModeExtensionsv1.xsd http://www.garmin.com/xmlschemas/CreationTimeExtension/v1 http://www.garmin.com/xmlschemas/CreationTimeExtensionsv1.xsd http://www.garmin.com/xmlschemas/AccelerationExtension/v1 http://www.garmin.com/xmlschemas/AccelerationExtensionv1.xsd http://www.garmin.com/xmlschemas/PowerExtension/v1 http://www.garmin.com/xmlschemas/PowerExtensionv1.xsd http://www.garmin.com/xmlschemas/VideoExtension/v1 http://www.garmin.com/xmlschemas/VideoExtensionv1.xsd" xmlns="http://www.topografix.com/GPX/1/1" xmlns:xsi="http://www.w3.org/2001/XMLSchema-instance" xmlns:wptx1="http://www.garmin.com/xmlschemas/WaypointExtension/v1" xmlns:gpxtrx="http://www.garmin.com/xmlschemas/GpxExtensions/v3" xmlns:gpxtpx="http://www.garmin.com/xmlschemas/TrackPointExtension/v1" xmlns:gpxx="http://www.garmin.com/xmlschemas/GpxExtensions/v3" xmlns:trp="http://www.garmin.com/xmlschemas/TripExtensions/v1" xmlns:adv="http://www.garmin.com/xmlschemas/AdventuresExtensions/v1" xmlns:prs="http://www.garmin.com/xmlschemas/PressureExtension/v1" xmlns:tmd="http://www.garmin.com/xmlschemas/TripMetaDataExtensions/v1" xmlns:vptm="http://www.garmin.com/xmlschemas/ViaPointTransportationModeExtensions/v1" xmlns:ctx="http://www.garmin.com/xmlschemas/CreationTimeExtension/v1" xmlns:gpxacc="http://www.garmin.com/xmlschemas/AccelerationExtension/v1" xmlns:gpxpx="http://www.garmin.com/xmlschemas/PowerExtension/v1" xmlns:vidx1="http://www.garmin.com/xmlschemas/VideoExtension/v1">

  <metadata>
    <link href="http://www.garmin.com">
      <text>Garmin International</text>
    </link>
    <time>2014-05-31T16:18:38Z</time>
    <bounds maxlat="46.80487378500402" maxlon="15.955625753849745" minlat="46.778578078374267" minlon="15.918599786236882" />
  </metadata>

  <trk>
    <name>Tau-Weg Tieschen</name>
    <extensions>
      <gpxx:TrackExtension>
        <gpxx:DisplayColor>Transparent</gpxx:DisplayColor>
      </gpxx:TrackExtension>
    </extensions>
    <trkseg>
      <trkpt lat="46.786373248323798" lon="15.945291118696332">
        <ele>276.03564453125</ele>
        <time>2011-11-13T10:22:18Z</time>
      </trkpt>
      <trkpt lat="46.786380289122462" lon="15.945299249142408">
        <ele>276.03564453125</ele>
        <time>2011-11-13T10:22:19Z</time>
      </trkpt>
      <trkpt lat="46.786369560286403" lon="15.94525046646595">
        <ele>276.516357421875</ele>
        <time>2011-11-13T10:22:47Z</time>
      </trkpt>
      <trkpt lat="46.786409625783563" lon="15.945274019613862">
        <ele>276.516357421875</ele>
        <time>2011-11-13T10:23:03Z</time>
      </trkpt>
      <trkpt lat="46.786432256922126" lon="15.945159019902349">
        <ele>276.03564453125</ele>
        <time>2011-11-13T10:23:31Z</time>
      </trkpt>
      <trkpt lat="46.786302840337157" lon="15.94506036490202">
        <ele>276.03564453125</ele>
        <time>2011-11-13T10:23:48Z</time>
      </trkpt>
      <trkpt lat="46.786295548081398" lon="15.945124654099345">
        <ele>276.03564453125</ele>
        <time>2011-11-13T10:24:04Z</time>
      </trkpt>
      <trkpt lat="46.78635966964066" lon="15.94519866630435">
        <ele>276.516357421875</ele>
        <time>2011-11-13T10:24:14Z</time>
      </trkpt>
      <trkpt lat="46.786364698782563" lon="15.945203946903348">
        <ele>276.516357421875</ele>
        <time>2011-11-13T10:24:43Z</time>
      </trkpt>
      <trkpt lat="46.786352880299091" lon="15.945232529193163">
        <ele>276.9970703125</ele>
        <time>2011-11-13T10:24:57Z</time>
      </trkpt>
      <trkpt lat="46.786207119002938" lon="15.945136556401849">
        <ele>276.03564453125</ele>
        <time>2011-11-13T10:25:16Z</time>
      </trkpt>
      <trkpt lat="46.786073762923479" lon="15.945082996040583">
        <ele>277.4776611328125</ele>
        <time>2011-11-13T10:25:32Z</time>
      </trkpt>
      <trkpt lat="46.786078959703445" lon="15.945278964936733">
        <ele>277.958251953125</ele>
        <time>2011-11-13T10:25:49Z</time>
      </trkpt>
      <trkpt lat="46.786075523123145" lon="15.945291453972459">
        <ele>277.958251953125</ele>
        <time>2011-11-13T10:25:50Z</time>
      </trkpt>
      <trkpt lat="46.786011066287756" lon="15.94529639929533">
        <ele>279.4002685546875</ele>
        <time>2011-11-13T10:26:05Z</time>
      </trkpt>
      <trkpt lat="46.785974353551865" lon="15.945257171988487">
        <ele>278.919677734375</ele>
        <time>2011-11-13T10:26:45Z</time>
      </trkpt>
      <trkpt lat="46.785921547561884" lon="15.945287179201841">
        <ele>279.4002685546875</ele>
        <time>2011-11-13T10:27:00Z</time>
      </trkpt>
      <trkpt lat="46.785897659137845" lon="15.94529933296144">
        <ele>279.4002685546875</ele>
        <time>2011-11-13T10:27:13Z</time>
      </trkpt>
      <trkpt lat="46.785876285284758" lon="15.945277456194162">
        <ele>279.880859375</ele>
        <time>2011-11-13T10:27:48Z</time>
      </trkpt>
      <trkpt lat="46.785892378538847" lon="15.945310732349753">
        <ele>278.919677734375</ele>
        <time>2011-11-13T10:28:20Z</time>
      </trkpt>
      <trkpt lat="46.785898916423321" lon="15.945326657965779">
        <ele>278.919677734375</ele>
        <time>2011-11-13T10:28:25Z</time>
      </trkpt>
      <trkpt lat="46.785880224779248" lon="15.945302853360772">
        <ele>278.919677734375</ele>
        <time>2011-11-13T10:28:43Z</time>
      </trkpt>
      <trkpt lat="46.785881733521819" lon="15.945314168930054">
        <ele>278.919677734375</ele>
        <time>2011-11-13T10:29:03Z</time>
      </trkpt>
      <trkpt lat="46.785890450701118" lon="15.945373345166445">
        <ele>278.919677734375</ele>
        <time>2011-11-13T10:29:16Z</time>
      </trkpt>
      <trkpt lat="46.785878296941519" lon="15.945446938276291">
        <ele>281.322998046875</ele>
        <time>2011-11-13T10:29:29Z</time>
      </trkpt>
      <trkpt lat="46.785753993317485" lon="15.945385079830885">
        <ele>281.8035888671875</ele>
        <time>2011-11-13T10:29:46Z</time>
      </trkpt>
      <trkpt lat="46.785725494846702" lon="15.945318695157766">
        <ele>280.3616943359375</ele>
        <time>2011-11-13T10:30:01Z</time>
      </trkpt>
      <trkpt lat="46.785725159570575" lon="15.945262871682644">
        <ele>279.4002685546875</ele>
        <time>2011-11-13T10:30:30Z</time>
      </trkpt>
      <trkpt lat="46.785784587264061" lon="15.945184919983149">
        <ele>278.919677734375</ele>
        <time>2011-11-13T10:30:45Z</time>
      </trkpt>
      <trkpt lat="46.785847116261721" lon="15.94512683339417">
        <ele>277.958251953125</ele>
        <time>2011-11-13T10:31:02Z</time>
      </trkpt>
      <trkpt lat="46.785865891724825" lon="15.945096658542752">
        <ele>276.9970703125</ele>
        <time>2011-11-13T10:31:09Z</time>
      </trkpt>
      <trkpt lat="46.785916853696108" lon="15.945010744035244">
        <ele>275.074462890625</ele>
        <time>2011-11-13T10:31:19Z</time>
      </trkpt>
      <trkpt lat="46.785985166206956" lon="15.944922482594848">
        <ele>273.6324462890625</ele>
        <time>2011-11-13T10:31:31Z</time>
      </trkpt>
      <trkpt lat="46.786050964146852" lon="15.944869173690677">
        <ele>272.1904296875</ele>
        <time>2011-11-13T10:31:42Z</time>
      </trkpt>
      <trkpt lat="46.786126820370555" lon="15.944912256672978">
        <ele>272.1904296875</ele>
        <time>2011-11-13T10:31:49Z</time>
      </trkpt>
      <trkpt lat="46.786254225298762" lon="15.945123396813869">
        <ele>273.6324462890625</ele>
        <time>2011-11-13T10:32:07Z</time>
      </trkpt>
      <trkpt lat="46.786275263875723" lon="15.945144519209862">
        <ele>274.113037109375</ele>
        <time>2011-11-13T10:32:10Z</time>
      </trkpt>
      <trkpt lat="46.786340475082397" lon="15.945200929418206">
        <ele>274.113037109375</ele>
        <time>2011-11-13T10:32:24Z</time>
      </trkpt>
      <trkpt lat="46.786349276080728" lon="15.945218279957771">
        <ele>274.113037109375</ele>
        <time>2011-11-13T10:32:38Z</time>
      </trkpt>
      <trkpt lat="46.786384228616953" lon="15.94515667296946">
        <ele>273.6324462890625</ele>
        <time>2011-11-13T10:32:51Z</time>
      </trkpt>
      <trkpt lat="46.786273252218962" lon="15.945114931091666">
        <ele>272.671142578125</ele>
        <time>2011-11-13T10:32:58Z</time>
      </trkpt>
      <trkpt lat="46.786098573356867" lon="15.945030860602856">
        <ele>272.1904296875</ele>
        <time>2011-11-13T10:33:10Z</time>
      </trkpt>
      <trkpt lat="46.786125395447016" lon="15.944922398775816">
        <ele>271.709716796875</ele>
        <time>2011-11-13T10:33:23Z</time>
      </trkpt>
      <trkpt lat="46.786055490374565" lon="15.944835562258959">
        <ele>271.2291259765625</ele>
        <time>2011-11-13T10:33:35Z</time>
      </trkpt>
      <trkpt lat="46.786043336614966" lon="15.944776888936758">
        <ele>270.7484130859375</ele>
        <time>2011-11-13T10:33:39Z</time>
      </trkpt>
      <trkpt lat="46.785943675786257" lon="15.944592738524079">
        <ele>269.787109375</ele>
        <time>2011-11-13T10:33:56Z</time>
      </trkpt>
      <trkpt lat="46.785970162600279" lon="15.944558791816235">
        <ele>270.2677001953125</ele>
        <time>2011-11-13T10:34:10Z</time>
      </trkpt>
      <trkpt lat="46.785975191742182" lon="15.944514367729425">
        <ele>270.2677001953125</ele>
        <time>2011-11-13T10:34:25Z</time>
      </trkpt>
      <trkpt lat="46.785926828160882" lon="15.944443540647626">
        <ele>270.2677001953125</ele>
        <time>2011-11-13T10:34:45Z</time>
      </trkpt>
      <trkpt lat="46.785952057689428" lon="15.944476062431931">
        <ele>269.3065185546875</ele>
        <time>2011-11-13T10:35:01Z</time>
      </trkpt>
      <trkpt lat="46.785995978862047" lon="15.944478577002883">
        <ele>269.3065185546875</ele>
        <time>2011-11-13T10:35:22Z</time>
      </trkpt>
      <trkpt lat="46.785913333296776" lon="15.944318231195211">
        <ele>269.787109375</ele>
        <time>2011-11-13T10:35:55Z</time>
      </trkpt>
      <trkpt lat="46.78589103743434" lon="15.944261150434613">
        <ele>269.787109375</ele>
        <time>2011-11-13T10:36:01Z</time>
      </trkpt>
      <trkpt lat="46.785893552005291" lon="15.944087561219931">
        <ele>270.2677001953125</ele>
        <time>2011-11-13T10:36:15Z</time>
      </trkpt>
      <trkpt lat="46.785880057141185" lon="15.944026624783874">
        <ele>270.7484130859375</ele>
        <time>2011-11-13T10:36:26Z</time>
      </trkpt>
      <trkpt lat="46.785829681903124" lon="15.944061577320099">
        <ele>270.2677001953125</ele>
        <time>2011-11-13T10:36:31Z</time>
      </trkpt>
      <trkpt lat="46.785743180662394" lon="15.944083370268345">
        <ele>270.2677001953125</ele>
        <time>2011-11-13T10:36:35Z</time>
      </trkpt>
      <trkpt lat="46.785577973350883" lon="15.944078089669347">
        <ele>270.7484130859375</ele>
        <time>2011-11-13T10:36:45Z</time>
      </trkpt>
      <trkpt lat="46.785532459616661" lon="15.943932747468352">
        <ele>270.7484130859375</ele>
        <time>2011-11-13T10:36:55Z</time>
      </trkpt>
      <trkpt lat="46.785355685278773" lon="15.94392822124064">
        <ele>271.709716796875</ele>
        <time>2011-11-13T10:37:07Z</time>
      </trkpt>
      <trkpt lat="46.785337077453732" lon="15.943736024200916">
        <ele>271.2291259765625</ele>
        <time>2011-11-13T10:37:21Z</time>
      </trkpt>
      <trkpt lat="46.785272285342216" lon="15.943659916520119">
        <ele>271.709716796875</ele>
        <time>2011-11-13T10:37:32Z</time>
      </trkpt>
      <trkpt lat="46.785165667533875" lon="15.943663520738482">
        <ele>271.709716796875</ele>
        <time>2011-11-13T10:37:44Z</time>
      </trkpt>
      <trkpt lat="46.78499442525208" lon="15.943726552650332">
        <ele>271.709716796875</ele>
        <time>2011-11-13T10:37:56Z</time>
      </trkpt>
      <trkpt lat="46.784783620387316" lon="15.943691181018949">
        <ele>271.709716796875</ele>
        <time>2011-11-13T10:38:11Z</time>
      </trkpt>
      <trkpt lat="46.784690832719207" lon="15.943525638431311">
        <ele>271.709716796875</ele>
        <time>2011-11-13T10:38:27Z</time>
      </trkpt>
      <trkpt lat="46.784628387540579" lon="15.943418266251683">
        <ele>271.709716796875</ele>
        <time>2011-11-13T10:38:39Z</time>
      </trkpt>
      <trkpt lat="46.784505341202021" lon="15.943273091688752">
        <ele>272.671142578125</ele>
        <time>2011-11-13T10:38:54Z</time>
      </trkpt>
      <trkpt lat="46.784381624311209" lon="15.94318114221096">
        <ele>272.671142578125</ele>
        <time>2011-11-13T10:39:07Z</time>
      </trkpt>
      <trkpt lat="46.78427517414093" lon="15.943131186068058">
        <ele>272.671142578125</ele>
        <time>2011-11-13T10:39:19Z</time>
      </trkpt>
      <trkpt lat="46.784101668745279" lon="15.943087851628661">
        <ele>272.1904296875</ele>
        <time>2011-11-13T10:39:26Z</time>
      </trkpt>
      <trkpt lat="46.783870244398713" lon="15.943193379789591">
        <ele>274.113037109375</ele>
        <time>2011-11-13T10:39:46Z</time>
      </trkpt>
      <trkpt lat="46.783720292150974" lon="15.943313743919134">
        <ele>276.03564453125</ele>
        <time>2011-11-13T10:40:03Z</time>
      </trkpt>
      <trkpt lat="46.78371568210423" lon="15.943447351455688">
        <ele>276.516357421875</ele>
        <time>2011-11-13T10:40:20Z</time>
      </trkpt>
      <trkpt lat="46.783798662945628" lon="15.943656144663692">
        <ele>277.4776611328125</ele>
        <time>2011-11-13T10:40:35Z</time>
      </trkpt>
      <trkpt lat="46.783829927444458" lon="15.943714147433639">
        <ele>276.9970703125</ele>
        <time>2011-11-13T10:40:55Z</time>
      </trkpt>
      <trkpt lat="46.783879464492202" lon="15.94374448992312">
        <ele>276.9970703125</ele>
        <time>2011-11-13T10:41:29Z</time>
      </trkpt>
      <trkpt lat="46.783912489190698" lon="15.943706436082721">
        <ele>276.516357421875</ele>
        <time>2011-11-13T10:41:47Z</time>
      </trkpt>
      <trkpt lat="46.783827664330602" lon="15.943709453567863">
        <ele>276.03564453125</ele>
        <time>2011-11-13T10:42:17Z</time>
      </trkpt>
      <trkpt lat="46.783828334882855" lon="15.943678440526128">
        <ele>276.03564453125</ele>
        <time>2011-11-13T10:42:32Z</time>
      </trkpt>
      <trkpt lat="46.78373814560473" lon="15.943673076108098">
        <ele>275.5550537109375</ele>
        <time>2011-11-13T10:43:43Z</time>
      </trkpt>
      <trkpt lat="46.783726746216416" lon="15.943624880164862">
        <ele>274.59375</ele>
        <time>2011-11-13T10:44:36Z</time>
      </trkpt>
      <trkpt lat="46.783773265779018" lon="15.943668633699417">
        <ele>274.59375</ele>
        <time>2011-11-13T10:44:58Z</time>
      </trkpt>
      <trkpt lat="46.783748790621758" lon="15.94365019351244">
        <ele>274.59375</ele>
        <time>2011-11-13T10:45:35Z</time>
      </trkpt>
      <trkpt lat="46.783718448132277" lon="15.943616079166532">
        <ele>274.113037109375</ele>
        <time>2011-11-13T10:45:48Z</time>
      </trkpt>
      <trkpt lat="46.783761447295547" lon="15.943506276234984">
        <ele>272.671142578125</ele>
        <time>2011-11-13T10:46:02Z</time>
      </trkpt>
      <trkpt lat="46.783791035413742" lon="15.943410973995924">
        <ele>271.709716796875</ele>
        <time>2011-11-13T10:46:14Z</time>
      </trkpt>
      <trkpt lat="46.783860689029098" lon="15.943206790834665">
        <ele>271.2291259765625</ele>
        <time>2011-11-13T10:46:32Z</time>
      </trkpt>
      <trkpt lat="46.78385004401207" lon="15.943138897418976">
        <ele>270.7484130859375</ele>
        <time>2011-11-13T10:46:42Z</time>
      </trkpt>
      <trkpt lat="46.783838393166661" lon="15.943021047860384">
        <ele>271.2291259765625</ele>
        <time>2011-11-13T10:46:50Z</time>
      </trkpt>
      <trkpt lat="46.783761866390705" lon="15.942873861640692">
        <ele>270.7484130859375</ele>
        <time>2011-11-13T10:47:06Z</time>
      </trkpt>
      <trkpt lat="46.78369858302176" lon="15.942812841385603">
        <ele>271.2291259765625</ele>
        <time>2011-11-13T10:47:17Z</time>
      </trkpt>
      <trkpt lat="46.783592719584703" lon="15.942752324044704">
        <ele>270.7484130859375</ele>
        <time>2011-11-13T10:47:33Z</time>
      </trkpt>
      <trkpt lat="46.78345718421042" lon="15.942695830017328">
        <ele>271.2291259765625</ele>
        <time>2011-11-13T10:47:47Z</time>
      </trkpt>
      <trkpt lat="46.783285019919276" lon="15.942650316283107">
        <ele>271.709716796875</ele>
        <time>2011-11-13T10:47:59Z</time>
      </trkpt>
      <trkpt lat="46.78322609513998" lon="15.942642772570252">
        <ele>271.709716796875</ele>
        <time>2011-11-13T10:48:02Z</time>
      </trkpt>
      <trkpt lat="46.783093996345997" lon="15.942636486142874">
        <ele>271.709716796875</ele>
        <time>2011-11-13T10:48:19Z</time>
      </trkpt>
      <trkpt lat="46.782843880355358" lon="15.942595666274428">
        <ele>271.709716796875</ele>
        <time>2011-11-13T10:48:33Z</time>
      </trkpt>
      <trkpt lat="46.782630225643516" lon="15.94256741926074">
        <ele>272.1904296875</ele>
        <time>2011-11-13T10:48:49Z</time>
      </trkpt>
      <trkpt lat="46.782462084665895" lon="15.942560127004981">
        <ele>272.671142578125</ele>
        <time>2011-11-13T10:49:04Z</time>
      </trkpt>
      <trkpt lat="46.782333757728338" lon="15.942591726779938">
        <ele>272.671142578125</ele>
        <time>2011-11-13T10:49:18Z</time>
      </trkpt>
      <trkpt lat="46.782110799103975" lon="15.942597845569253">
        <ele>272.671142578125</ele>
        <time>2011-11-13T10:49:31Z</time>
      </trkpt>
      <trkpt lat="46.781932096928358" lon="15.9426299482584">
        <ele>272.671142578125</ele>
        <time>2011-11-13T10:49:45Z</time>
      </trkpt>
      <trkpt lat="46.78177485242486" lon="15.942653166130185">
        <ele>273.6324462890625</ele>
        <time>2011-11-13T10:49:59Z</time>
      </trkpt>
      <trkpt lat="46.781705869361758" lon="15.942661128938198">
        <ele>273.6324462890625</ele>
        <time>2011-11-13T10:50:07Z</time>
      </trkpt>
      <trkpt lat="46.781588019803166" lon="15.942607736214995">
        <ele>273.15185546875</ele>
        <time>2011-11-13T10:50:11Z</time>
      </trkpt>
      <trkpt lat="46.781360954046249" lon="15.942399948835373">
        <ele>270.7484130859375</ele>
        <time>2011-11-13T10:50:30Z</time>
      </trkpt>
      <trkpt lat="46.781195495277643" lon="15.942255277186632">
        <ele>270.2677001953125</ele>
        <time>2011-11-13T10:50:49Z</time>
      </trkpt>
      <trkpt lat="46.781065491959453" lon="15.942100882530212">
        <ele>269.787109375</ele>
        <time>2011-11-13T10:51:05Z</time>
      </trkpt>
      <trkpt lat="46.781007573008537" lon="15.942007759585977">
        <ele>268.8258056640625</ele>
        <time>2011-11-13T10:51:11Z</time>
      </trkpt>
      <trkpt lat="46.780882850289345" lon="15.941716739907861">
        <ele>267.3839111328125</ele>
        <time>2011-11-13T10:51:30Z</time>
      </trkpt>
      <trkpt lat="46.780925178900361" lon="15.941380625590682">
        <ele>265.4613037109375</ele>
        <time>2011-11-13T10:51:49Z</time>
      </trkpt>
      <trkpt lat="46.780919479206204" lon="15.941066723316908">
        <ele>264.4998779296875</ele>
        <time>2011-11-13T10:52:08Z</time>
      </trkpt>
      <trkpt lat="46.780935237184167" lon="15.940734045580029">
        <ele>263.057861328125</ele>
        <time>2011-11-13T10:52:28Z</time>
      </trkpt>
      <trkpt lat="46.780957784503698" lon="15.940395332872868">
        <ele>262.0965576171875</ele>
        <time>2011-11-13T10:52:48Z</time>
      </trkpt>
      <trkpt lat="46.78100966848433" lon="15.9400690253824">
        <ele>260.654541015625</ele>
        <time>2011-11-13T10:53:09Z</time>
      </trkpt>
      <trkpt lat="46.781119639053941" lon="15.939721344038844">
        <ele>260.1739501953125</ele>
        <time>2011-11-13T10:53:31Z</time>
      </trkpt>
      <trkpt lat="46.781208990141749" lon="15.939517747610807">
        <ele>259.693359375</ele>
        <time>2011-11-13T10:53:47Z</time>
      </trkpt>
      <trkpt lat="46.781385177746415" lon="15.939227482303977">
        <ele>259.693359375</ele>
        <time>2011-11-13T10:54:05Z</time>
      </trkpt>
      <trkpt lat="46.781555246561766" lon="15.938925817608833">
        <ele>259.693359375</ele>
        <time>2011-11-13T10:54:25Z</time>
      </trkpt>
      <trkpt lat="46.78168348968029" lon="15.938721299171448">
        <ele>259.212646484375</ele>
        <time>2011-11-13T10:54:44Z</time>
      </trkpt>
      <trkpt lat="46.781734116375446" lon="15.938640246167779">
        <ele>259.212646484375</ele>
        <time>2011-11-13T10:54:50Z</time>
      </trkpt>
      <trkpt lat="46.781919943168759" lon="15.938377976417542">
        <ele>259.212646484375</ele>
        <time>2011-11-13T10:55:12Z</time>
      </trkpt>
      <trkpt lat="46.782154385000467" lon="15.938165495172143">
        <ele>259.693359375</ele>
        <time>2011-11-13T10:55:33Z</time>
      </trkpt>
      <trkpt lat="46.782401064410806" lon="15.93801143579185">
        <ele>258.73193359375</ele>
        <time>2011-11-13T10:55:54Z</time>
      </trkpt>
      <trkpt lat="46.782587980851531" lon="15.937737096101046">
        <ele>258.2513427734375</ele>
        <time>2011-11-13T10:56:15Z</time>
      </trkpt>
      <trkpt lat="46.782718487083912" lon="15.937476418912411">
        <ele>258.2513427734375</ele>
        <time>2011-11-13T10:56:34Z</time>
      </trkpt>
      <trkpt lat="46.782877743244171" lon="15.937150781974196">
        <ele>257.770751953125</ele>
        <time>2011-11-13T10:56:56Z</time>
      </trkpt>
      <trkpt lat="46.782940523698926" lon="15.937100490555167">
        <ele>258.73193359375</ele>
        <time>2011-11-13T10:57:12Z</time>
      </trkpt>
      <trkpt lat="46.783106485381722" lon="15.936788935214281">
        <ele>258.2513427734375</ele>
        <time>2011-11-13T10:57:35Z</time>
      </trkpt>
      <trkpt lat="46.783293569460511" lon="15.936441170051694">
        <ele>259.212646484375</ele>
        <time>2011-11-13T10:57:59Z</time>
      </trkpt>
      <trkpt lat="46.783335143700242" lon="15.936206141486764">
        <ele>259.212646484375</ele>
        <time>2011-11-13T10:58:17Z</time>
      </trkpt>
      <trkpt lat="46.783336065709591" lon="15.936193317174911">
        <ele>259.212646484375</ele>
        <time>2011-11-13T10:58:18Z</time>
      </trkpt>
      <trkpt lat="46.783406557515264" lon="15.935883186757565">
        <ele>259.212646484375</ele>
        <time>2011-11-13T10:58:37Z</time>
      </trkpt>
      <trkpt lat="46.783485682681203" lon="15.935553358867764">
        <ele>259.212646484375</ele>
        <time>2011-11-13T10:58:58Z</time>
      </trkpt>
      <trkpt lat="46.78353781811893" lon="15.935159744694829">
        <ele>259.212646484375</ele>
        <time>2011-11-13T10:59:22Z</time>
      </trkpt>
      <trkpt lat="46.783534046262503" lon="15.934756156057119">
        <ele>259.212646484375</ele>
        <time>2011-11-13T10:59:45Z</time>
      </trkpt>
      <trkpt lat="46.783469170331955" lon="15.934336557984352">
        <ele>259.693359375</ele>
        <time>2011-11-13T11:00:10Z</time>
      </trkpt>
      <trkpt lat="46.783353583887219" lon="15.933959372341633">
        <ele>258.2513427734375</ele>
        <time>2011-11-13T11:00:34Z</time>
      </trkpt>
      <trkpt lat="46.78323045372963" lon="15.933558382093906">
        <ele>258.2513427734375</ele>
        <time>2011-11-13T11:00:59Z</time>
      </trkpt>
      <trkpt lat="46.78311905823648" lon="15.933184381574392">
        <ele>258.2513427734375</ele>
        <time>2011-11-13T11:01:22Z</time>
      </trkpt>
      <trkpt lat="46.782983355224133" lon="15.932794874534011">
        <ele>257.770751953125</ele>
        <time>2011-11-13T11:01:46Z</time>
      </trkpt>
      <trkpt lat="46.782782860100269" lon="15.932396482676268">
        <ele>257.770751953125</ele>
        <time>2011-11-13T11:02:14Z</time>
      </trkpt>
      <trkpt lat="46.782604325562716" lon="15.932088950648904">
        <ele>257.770751953125</ele>
        <time>2011-11-13T11:02:38Z</time>
      </trkpt>
      <trkpt lat="46.782430484890938" lon="15.931854424998164">
        <ele>258.2513427734375</ele>
        <time>2011-11-13T11:02:57Z</time>
      </trkpt>
      <trkpt lat="46.782159581780434" lon="15.931547060608864">
        <ele>259.212646484375</ele>
        <time>2011-11-13T11:03:24Z</time>
      </trkpt>
      <trkpt lat="46.781917093321681" lon="15.931300045922399">
        <ele>259.212646484375</ele>
        <time>2011-11-13T11:03:48Z</time>
      </trkpt>
      <trkpt lat="46.781705785542727" lon="15.931082116439939">
        <ele>258.2513427734375</ele>
        <time>2011-11-13T11:04:09Z</time>
      </trkpt>
      <trkpt lat="46.781469751149416" lon="15.930872736498713">
        <ele>257.770751953125</ele>
        <time>2011-11-13T11:04:32Z</time>
      </trkpt>
      <trkpt lat="46.781227849423885" lon="15.930736362934113">
        <ele>257.2900390625</ele>
        <time>2011-11-13T11:04:53Z</time>
      </trkpt>
      <trkpt lat="46.78090606816113" lon="15.930575178936124">
        <ele>257.2900390625</ele>
        <time>2011-11-13T11:05:20Z</time>
      </trkpt>
      <trkpt lat="46.780645977705717" lon="15.93044844456017">
        <ele>257.770751953125</ele>
        <time>2011-11-13T11:05:42Z</time>
      </trkpt>
      <trkpt lat="46.780340373516083" lon="15.930356662720442">
        <ele>258.2513427734375</ele>
        <time>2011-11-13T11:06:06Z</time>
      </trkpt>
      <trkpt lat="46.780019346624613" lon="15.930382395163178">
        <ele>257.770751953125</ele>
        <time>2011-11-13T11:06:32Z</time>
      </trkpt>
      <trkpt lat="46.779765039682388" lon="15.930445678532124">
        <ele>256.809326171875</ele>
        <time>2011-11-13T11:06:54Z</time>
      </trkpt>
      <trkpt lat="46.779589019715786" lon="15.930478284135461">
        <ele>255.8480224609375</ele>
        <time>2011-11-13T11:07:10Z</time>
      </trkpt>
      <trkpt lat="46.779402438551188" lon="15.930519355461001">
        <ele>254.8865966796875</ele>
        <time>2011-11-13T11:07:28Z</time>
      </trkpt>
      <trkpt lat="46.77919196896255" lon="15.930556738749146">
        <ele>254.406005859375</ele>
        <time>2011-11-13T11:07:45Z</time>
      </trkpt>
      <trkpt lat="46.778951156884432" lon="15.93061113730073">
        <ele>254.8865966796875</ele>
        <time>2011-11-13T11:08:03Z</time>
      </trkpt>
      <trkpt lat="46.778793996199965" lon="15.930653885006905">
        <ele>254.8865966796875</ele>
        <time>2011-11-13T11:08:17Z</time>
      </trkpt>
      <trkpt lat="46.77867497317493" lon="15.930643994361162">
        <ele>254.406005859375</ele>
        <time>2011-11-13T11:08:29Z</time>
      </trkpt>
      <trkpt lat="46.778578078374267" lon="15.930343922227621">
        <ele>253.4447021484375</ele>
        <time>2011-11-13T11:08:50Z</time>
      </trkpt>
      <trkpt lat="46.778609091416001" lon="15.930115850642323">
        <ele>254.8865966796875</ele>
        <time>2011-11-13T11:09:09Z</time>
      </trkpt>
      <trkpt lat="46.778665585443377" lon="15.929656689986587">
        <ele>255.3673095703125</ele>
        <time>2011-11-13T11:09:34Z</time>
      </trkpt>
      <trkpt lat="46.778710260987282" lon="15.929297860711813">
        <ele>256.809326171875</ele>
        <time>2011-11-13T11:09:56Z</time>
      </trkpt>
      <trkpt lat="46.778762061148882" lon="15.92894934117794">
        <ele>258.73193359375</ele>
        <time>2011-11-13T11:10:17Z</time>
      </trkpt>
      <trkpt lat="46.778806149959564" lon="15.928645497187972">
        <ele>259.693359375</ele>
        <time>2011-11-13T11:10:34Z</time>
      </trkpt>
      <trkpt lat="46.778831044211984" lon="15.928351879119873">
        <ele>260.654541015625</ele>
        <time>2011-11-13T11:10:52Z</time>
      </trkpt>
      <trkpt lat="46.778874294832349" lon="15.928030852228403">
        <ele>263.057861328125</ele>
        <time>2011-11-13T11:11:13Z</time>
      </trkpt>
      <trkpt lat="46.77893447689712" lon="15.927669843658805">
        <ele>264.4998779296875</ele>
        <time>2011-11-13T11:11:33Z</time>
      </trkpt>
      <trkpt lat="46.778940930962563" lon="15.927382595837116">
        <ele>265.4613037109375</ele>
        <time>2011-11-13T11:11:49Z</time>
      </trkpt>
      <trkpt lat="46.778947217389941" lon="15.927031645551324">
        <ele>266.9031982421875</ele>
        <time>2011-11-13T11:12:10Z</time>
      </trkpt>
      <trkpt lat="46.778967417776585" lon="15.926746744662523">
        <ele>267.864501953125</ele>
        <time>2011-11-13T11:12:26Z</time>
      </trkpt>
      <trkpt lat="46.778969429433346" lon="15.926496963948011">
        <ele>268.8258056640625</ele>
        <time>2011-11-13T11:12:41Z</time>
      </trkpt>
      <trkpt lat="46.778987031430006" lon="15.926163448020816">
        <ele>271.2291259765625</ele>
        <time>2011-11-13T11:13:02Z</time>
      </trkpt>
      <trkpt lat="46.779012428596616" lon="15.925941159948707">
        <ele>272.1904296875</ele>
        <time>2011-11-13T11:13:22Z</time>
      </trkpt>
      <trkpt lat="46.779046291485429" lon="15.925677632912993">
        <ele>273.6324462890625</ele>
        <time>2011-11-13T11:13:40Z</time>
      </trkpt>
      <trkpt lat="46.779162799939513" lon="15.92536716721952">
        <ele>274.113037109375</ele>
        <time>2011-11-13T11:14:01Z</time>
      </trkpt>
      <trkpt lat="46.779365725815296" lon="15.925017558038235">
        <ele>275.074462890625</ele>
        <time>2011-11-13T11:14:27Z</time>
      </trkpt>
      <trkpt lat="46.779559683054686" lon="15.924727460369468">
        <ele>275.5550537109375</ele>
        <time>2011-11-13T11:14:50Z</time>
      </trkpt>
      <trkpt lat="46.77978272549808" lon="15.924398973584175">
        <ele>275.5550537109375</ele>
        <time>2011-11-13T11:15:16Z</time>
      </trkpt>
      <trkpt lat="46.779950950294733" lon="15.924148354679346">
        <ele>276.516357421875</ele>
        <time>2011-11-13T11:15:35Z</time>
      </trkpt>
      <trkpt lat="46.780156055465341" lon="15.923849288374186">
        <ele>276.516357421875</ele>
        <time>2011-11-13T11:15:59Z</time>
      </trkpt>
      <trkpt lat="46.780370883643627" lon="15.92356514185667">
        <ele>278.43896484375</ele>
        <time>2011-11-13T11:16:24Z</time>
      </trkpt>
      <trkpt lat="46.780486973002553" lon="15.923429438844323">
        <ele>278.919677734375</ele>
        <time>2011-11-13T11:16:41Z</time>
      </trkpt>
      <trkpt lat="46.780597027391195" lon="15.923248389735818">
        <ele>278.43896484375</ele>
        <time>2011-11-13T11:16:58Z</time>
      </trkpt>
      <trkpt lat="46.780775478109717" lon="15.923035573214293">
        <ele>280.3616943359375</ele>
        <time>2011-11-13T11:17:20Z</time>
      </trkpt>
      <trkpt lat="46.780936159193516" lon="15.922837257385254">
        <ele>282.7650146484375</ele>
        <time>2011-11-13T11:17:39Z</time>
      </trkpt>
      <trkpt lat="46.781105641275644" lon="15.922619495540857">
        <ele>284.2069091796875</ele>
        <time>2011-11-13T11:17:59Z</time>
      </trkpt>
      <trkpt lat="46.781248217448592" lon="15.922430735081434">
        <ele>285.168212890625</ele>
        <time>2011-11-13T11:18:17Z</time>
      </trkpt>
      <trkpt lat="46.781454244628549" lon="15.922217583283782">
        <ele>286.1295166015625</ele>
        <time>2011-11-13T11:18:40Z</time>
      </trkpt>
      <trkpt lat="46.781772086396813" lon="15.922128148376942">
        <ele>285.168212890625</ele>
        <time>2011-11-13T11:19:05Z</time>
      </trkpt>
      <trkpt lat="46.782092778012156" lon="15.92210023663938">
        <ele>285.168212890625</ele>
        <time>2011-11-13T11:19:31Z</time>
      </trkpt>
      <trkpt lat="46.782387234270573" lon="15.922136195003986">
        <ele>285.6488037109375</ele>
        <time>2011-11-13T11:19:56Z</time>
      </trkpt>
      <trkpt lat="46.78263776935637" lon="15.922274496406317">
        <ele>285.168212890625</ele>
        <time>2011-11-13T11:20:21Z</time>
      </trkpt>
      <trkpt lat="46.782794343307614" lon="15.922370469197631">
        <ele>287.5714111328125</ele>
        <time>2011-11-13T11:20:40Z</time>
      </trkpt>
      <trkpt lat="46.78293289616704" lon="15.922435345128179">
        <ele>290.9361572265625</ele>
        <time>2011-11-13T11:20:55Z</time>
      </trkpt>
      <trkpt lat="46.783096259459853" lon="15.922544058412313">
        <ele>293.820068359375</ele>
        <time>2011-11-13T11:21:12Z</time>
      </trkpt>
      <trkpt lat="46.783246379345655" lon="15.922634499147534">
        <ele>295.74267578125</ele>
        <time>2011-11-13T11:21:30Z</time>
      </trkpt>
      <trkpt lat="46.783424830064178" lon="15.922754528000951">
        <ele>298.1461181640625</ele>
        <time>2011-11-13T11:21:47Z</time>
      </trkpt>
      <trkpt lat="46.783611075952649" lon="15.922709433361888">
        <ele>299.1072998046875</ele>
        <time>2011-11-13T11:22:08Z</time>
      </trkpt>
      <trkpt lat="46.78376404568553" lon="15.922589488327503">
        <ele>301.9913330078125</ele>
        <time>2011-11-13T11:22:28Z</time>
      </trkpt>
      <trkpt lat="46.783911231905222" lon="15.922446241602302">
        <ele>304.3946533203125</ele>
        <time>2011-11-13T11:22:46Z</time>
      </trkpt>
      <trkpt lat="46.784091778099537" lon="15.922262761741877">
        <ele>306.7978515625</ele>
        <time>2011-11-13T11:23:06Z</time>
      </trkpt>
      <trkpt lat="46.784234941005707" lon="15.922084478661418">
        <ele>309.201171875</ele>
        <time>2011-11-13T11:23:26Z</time>
      </trkpt>
      <trkpt lat="46.784371482208371" lon="15.921896724030375">
        <ele>311.6044921875</ele>
        <time>2011-11-13T11:23:48Z</time>
      </trkpt>
      <trkpt lat="46.784529564902186" lon="15.921669322997332">
        <ele>313.5272216796875</ele>
        <time>2011-11-13T11:24:08Z</time>
      </trkpt>
      <trkpt lat="46.784666776657104" lon="15.92147477902472">
        <ele>314.9691162109375</ele>
        <time>2011-11-13T11:24:29Z</time>
      </trkpt>
      <trkpt lat="46.784764844924212" lon="15.921302698552608">
        <ele>316.8917236328125</ele>
        <time>2011-11-13T11:24:48Z</time>
      </trkpt>
      <trkpt lat="46.784815220162272" lon="15.921224327757955">
        <ele>317.85302734375</ele>
        <time>2011-11-13T11:25:03Z</time>
      </trkpt>
      <trkpt lat="46.784996856004" lon="15.921082086861134">
        <ele>320.25634765625</ele>
        <time>2011-11-13T11:25:24Z</time>
      </trkpt>
      <trkpt lat="46.78519869223237" lon="15.921055097132921">
        <ele>322.178955078125</ele>
        <time>2011-11-13T11:25:45Z</time>
      </trkpt>
      <trkpt lat="46.785310925915837" lon="15.920958621427417">
        <ele>323.140380859375</ele>
        <time>2011-11-13T11:26:03Z</time>
      </trkpt>
      <trkpt lat="46.785354176536202" lon="15.920788887888193">
        <ele>323.140380859375</ele>
        <time>2011-11-13T11:26:17Z</time>
      </trkpt>
      <trkpt lat="46.785357864573598" lon="15.920761059969664">
        <ele>323.140380859375</ele>
        <time>2011-11-13T11:26:19Z</time>
      </trkpt>
      <trkpt lat="46.785394325852394" lon="15.920449588447809">
        <ele>325.5435791015625</ele>
        <time>2011-11-13T11:26:39Z</time>
      </trkpt>
      <trkpt lat="46.785420645028353" lon="15.920153874903917">
        <ele>327.4661865234375</ele>
        <time>2011-11-13T11:26:59Z</time>
      </trkpt>
      <trkpt lat="46.785437073558569" lon="15.919861765578389">
        <ele>327.94677734375</ele>
        <time>2011-11-13T11:27:17Z</time>
      </trkpt>
      <trkpt lat="46.785442437976599" lon="15.91955004259944">
        <ele>330.3502197265625</ele>
        <time>2011-11-13T11:27:37Z</time>
      </trkpt>
      <trkpt lat="46.785442940890789" lon="15.919458428397775">
        <ele>330.8309326171875</ele>
        <time>2011-11-13T11:27:43Z</time>
      </trkpt>
      <trkpt lat="46.785432798787951" lon="15.919127594679594">
        <ele>333.234130859375</ele>
        <time>2011-11-13T11:28:04Z</time>
      </trkpt>
      <trkpt lat="46.785494070500135" lon="15.918904636055231">
        <ele>334.1954345703125</ele>
        <time>2011-11-13T11:28:24Z</time>
      </trkpt>
      <trkpt lat="46.785665145143867" lon="15.918819475919008">
        <ele>338.521484375</ele>
        <time>2011-11-13T11:28:44Z</time>
      </trkpt>
      <trkpt lat="46.785673778504133" lon="15.918815536424518">
        <ele>338.521484375</ele>
        <time>2011-11-13T11:28:45Z</time>
      </trkpt>
      <trkpt lat="46.785863041877747" lon="15.918732639402151">
        <ele>340.444091796875</ele>
        <time>2011-11-13T11:29:09Z</time>
      </trkpt>
      <trkpt lat="46.786007042974234" lon="15.918681845068932">
        <ele>343.327880859375</ele>
        <time>2011-11-13T11:29:29Z</time>
      </trkpt>
      <trkpt lat="46.786051550880075" lon="15.918680336326361">
        <ele>344.2894287109375</ele>
        <time>2011-11-13T11:29:44Z</time>
      </trkpt>
      <trkpt lat="46.786106871441007" lon="15.918639935553074">
        <ele>346.2120361328125</ele>
        <time>2011-11-13T11:30:02Z</time>
      </trkpt>
      <trkpt lat="46.786193288862705" lon="15.918611856177449">
        <ele>347.1732177734375</ele>
        <time>2011-11-13T11:30:20Z</time>
      </trkpt>
      <trkpt lat="46.786231677979231" lon="15.918599786236882">
        <ele>349.0958251953125</ele>
        <time>2011-11-13T11:30:27Z</time>
      </trkpt>
      <trkpt lat="46.786351455375552" lon="15.918672457337379">
        <ele>351.4991455078125</ele>
        <time>2011-11-13T11:30:45Z</time>
      </trkpt>
      <trkpt lat="46.786358496174216" lon="15.918677737936378">
        <ele>351.4991455078125</ele>
        <time>2011-11-13T11:30:46Z</time>
      </trkpt>
      <trkpt lat="46.78645296022296" lon="15.91878435574472">
        <ele>353.902587890625</ele>
        <time>2011-11-13T11:31:04Z</time>
      </trkpt>
      <trkpt lat="46.786537198349833" lon="15.918918466195464">
        <ele>356.3057861328125</ele>
        <time>2011-11-13T11:31:24Z</time>
      </trkpt>
      <trkpt lat="46.786536946892738" lon="15.919033633545041">
        <ele>358.2283935546875</ele>
        <time>2011-11-13T11:31:42Z</time>
      </trkpt>
      <trkpt lat="46.786606349050999" lon="15.919208144769073">
        <ele>358.2283935546875</ele>
        <time>2011-11-13T11:31:59Z</time>
      </trkpt>
      <trkpt lat="46.786638535559177" lon="15.919259190559387">
        <ele>357.747802734375</ele>
        <time>2011-11-13T11:32:14Z</time>
      </trkpt>
      <trkpt lat="46.786632416769862" lon="15.919362455606461">
        <ele>357.26708984375</ele>
        <time>2011-11-13T11:32:35Z</time>
      </trkpt>
      <trkpt lat="46.78662545979023" lon="15.919537050649524">
        <ele>356.786376953125</ele>
        <time>2011-11-13T11:32:52Z</time>
      </trkpt>
      <trkpt lat="46.786745823919773" lon="15.919838799163699">
        <ele>356.3057861328125</ele>
        <time>2011-11-13T11:33:07Z</time>
      </trkpt>
      <trkpt lat="46.78688052110374" lon="15.920068630948663">
        <ele>356.786376953125</ele>
        <time>2011-11-13T11:33:23Z</time>
      </trkpt>
      <trkpt lat="46.787040950730443" lon="15.92028102837503">
        <ele>357.26708984375</ele>
        <time>2011-11-13T11:33:42Z</time>
      </trkpt>
      <trkpt lat="46.787201464176178" lon="15.920383371412754">
        <ele>357.747802734375</ele>
        <time>2011-11-13T11:34:00Z</time>
      </trkpt>
      <trkpt lat="46.787289557978511" lon="15.920463670045137">
        <ele>357.747802734375</ele>
        <time>2011-11-13T11:34:13Z</time>
      </trkpt>
      <trkpt lat="46.787385866045952" lon="15.920536173507571">
        <ele>357.26708984375</ele>
        <time>2011-11-13T11:34:29Z</time>
      </trkpt>
      <trkpt lat="46.787506397813559" lon="15.920727280899882">
        <ele>357.747802734375</ele>
        <time>2011-11-13T11:34:44Z</time>
      </trkpt>
      <trkpt lat="46.78759247995913" lon="15.920889135450125">
        <ele>355.8251953125</ele>
        <time>2011-11-13T11:34:59Z</time>
      </trkpt>
      <trkpt lat="46.787673868238926" lon="15.921127516776323">
        <ele>354.86376953125</ele>
        <time>2011-11-13T11:35:15Z</time>
      </trkpt>
      <trkpt lat="46.787745365872979" lon="15.921282665804029">
        <ele>355.8251953125</ele>
        <time>2011-11-13T11:35:29Z</time>
      </trkpt>
      <trkpt lat="46.787877464666963" lon="15.921523980796337">
        <ele>354.86376953125</ele>
        <time>2011-11-13T11:35:44Z</time>
      </trkpt>
      <trkpt lat="46.788027919828892" lon="15.921763367950916">
        <ele>355.344482421875</ele>
        <time>2011-11-13T11:35:59Z</time>
      </trkpt>
      <trkpt lat="46.788163874298334" lon="15.921954140067101">
        <ele>354.3831787109375</ele>
        <time>2011-11-13T11:36:15Z</time>
      </trkpt>
      <trkpt lat="46.788271246477962" lon="15.922255134209991">
        <ele>353.421875</ele>
        <time>2011-11-13T11:36:33Z</time>
      </trkpt>
      <trkpt lat="46.788355987519026" lon="15.922457557171583">
        <ele>353.421875</ele>
        <time>2011-11-13T11:36:49Z</time>
      </trkpt>
      <trkpt lat="46.788393035531044" lon="15.922608263790607">
        <ele>353.421875</ele>
        <time>2011-11-13T11:37:01Z</time>
      </trkpt>
      <trkpt lat="46.788527481257915" lon="15.922858128324151">
        <ele>354.3831787109375</ele>
        <time>2011-11-13T11:37:16Z</time>
      </trkpt>
      <trkpt lat="46.788566038012505" lon="15.922953933477402">
        <ele>353.902587890625</ele>
        <time>2011-11-13T11:37:54Z</time>
      </trkpt>
      <trkpt lat="46.78856436163187" lon="15.92291864566505">
        <ele>354.3831787109375</ele>
        <time>2011-11-13T11:38:03Z</time>
      </trkpt>
      <trkpt lat="46.78857215680182" lon="15.922897355630994">
        <ele>354.3831787109375</ele>
        <time>2011-11-13T11:38:17Z</time>
      </trkpt>
      <trkpt lat="46.788515830412507" lon="15.922960722818971">
        <ele>353.902587890625</ele>
        <time>2011-11-13T11:38:30Z</time>
      </trkpt>
      <trkpt lat="46.788492780178785" lon="15.923068094998598">
        <ele>353.902587890625</ele>
        <time>2011-11-13T11:38:36Z</time>
      </trkpt>
      <trkpt lat="46.788458749651909" lon="15.923255933448672">
        <ele>354.3831787109375</ele>
        <time>2011-11-13T11:38:46Z</time>
      </trkpt>
      <trkpt lat="46.788398567587137" lon="15.923552149906754">
        <ele>355.344482421875</ele>
        <time>2011-11-13T11:39:00Z</time>
      </trkpt>
      <trkpt lat="46.788235874846578" lon="15.923681566491723">
        <ele>355.8251953125</ele>
        <time>2011-11-13T11:39:14Z</time>
      </trkpt>
      <trkpt lat="46.788077456876636" lon="15.92376597225666">
        <ele>354.86376953125</ele>
        <time>2011-11-13T11:39:28Z</time>
      </trkpt>
      <trkpt lat="46.787855420261621" lon="15.923890946432948">
        <ele>355.344482421875</ele>
        <time>2011-11-13T11:39:43Z</time>
      </trkpt>
      <trkpt lat="46.787716699764132" lon="15.923958085477352">
        <ele>356.3057861328125</ele>
        <time>2011-11-13T11:39:55Z</time>
      </trkpt>
      <trkpt lat="46.787567166611552" lon="15.924069145694375">
        <ele>357.26708984375</ele>
        <time>2011-11-13T11:40:09Z</time>
      </trkpt>
      <trkpt lat="46.787515366449952" lon="15.924120359122753">
        <ele>356.786376953125</ele>
        <time>2011-11-13T11:40:13Z</time>
      </trkpt>
      <trkpt lat="46.787290144711733" lon="15.92422085814178">
        <ele>357.26708984375</ele>
        <time>2011-11-13T11:40:29Z</time>
      </trkpt>
      <trkpt lat="46.787201380357146" lon="15.924295959994197">
        <ele>358.2283935546875</ele>
        <time>2011-11-13T11:40:59Z</time>
      </trkpt>
      <trkpt lat="46.787088727578521" lon="15.924354968592525">
        <ele>357.747802734375</ele>
        <time>2011-11-13T11:41:44Z</time>
      </trkpt>
      <trkpt lat="46.786926873028278" lon="15.924591170623899">
        <ele>358.708984375</ele>
        <time>2011-11-13T11:42:04Z</time>
      </trkpt>
      <trkpt lat="46.786776585504413" lon="15.924924770370126">
        <ele>358.708984375</ele>
        <time>2011-11-13T11:42:26Z</time>
      </trkpt>
      <trkpt lat="46.786611964926124" lon="15.925164744257927">
        <ele>358.708984375</ele>
        <time>2011-11-13T11:42:47Z</time>
      </trkpt>
      <trkpt lat="46.786500653252006" lon="15.92544486746192">
        <ele>358.2283935546875</ele>
        <time>2011-11-13T11:43:05Z</time>
      </trkpt>
      <trkpt lat="46.786370733752847" lon="15.925703532993793">
        <ele>357.26708984375</ele>
        <time>2011-11-13T11:43:24Z</time>
      </trkpt>
      <trkpt lat="46.786264535039663" lon="15.926047526299953">
        <ele>354.86376953125</ele>
        <time>2011-11-13T11:43:45Z</time>
      </trkpt>
      <trkpt lat="46.786236455664039" lon="15.926152132451534">
        <ele>353.421875</ele>
        <time>2011-11-13T11:43:53Z</time>
      </trkpt>
      <trkpt lat="46.786198988556862" lon="15.926588494330645">
        <ele>351.4991455078125</ele>
        <time>2011-11-13T11:44:17Z</time>
      </trkpt>
      <trkpt lat="46.786156743764877" lon="15.926929889246821">
        <ele>349.0958251953125</ele>
        <time>2011-11-13T11:44:38Z</time>
      </trkpt>
      <trkpt lat="46.786131430417299" lon="15.927063832059503">
        <ele>348.615234375</ele>
        <time>2011-11-13T11:44:56Z</time>
      </trkpt>
      <trkpt lat="46.786119025200605" lon="15.926978420466185">
        <ele>349.0958251953125</ele>
        <time>2011-11-13T11:45:27Z</time>
      </trkpt>
      <trkpt lat="46.78612707182765" lon="15.926843974739313">
        <ele>350.0572509765625</ele>
        <time>2011-11-13T11:45:37Z</time>
      </trkpt>
      <trkpt lat="46.786156659945846" lon="15.92682184651494">
        <ele>350.537841796875</ele>
        <time>2011-11-13T11:45:40Z</time>
      </trkpt>
      <trkpt lat="46.786393448710442" lon="15.926832994446158">
        <ele>351.9798583984375</ele>
        <time>2011-11-13T11:46:02Z</time>
      </trkpt>
      <trkpt lat="46.786521272733808" lon="15.926843388006091">
        <ele>352.4605712890625</ele>
        <time>2011-11-13T11:46:19Z</time>
      </trkpt>
      <trkpt lat="46.786775495857" lon="15.926921339705586">
        <ele>353.421875</ele>
        <time>2011-11-13T11:46:43Z</time>
      </trkpt>
      <trkpt lat="46.786999795585871" lon="15.927040195092559">
        <ele>354.3831787109375</ele>
        <time>2011-11-13T11:47:08Z</time>
      </trkpt>
      <trkpt lat="46.787079591304064" lon="15.927088391035795">
        <ele>354.3831787109375</ele>
        <time>2011-11-13T11:47:24Z</time>
      </trkpt>
      <trkpt lat="46.787171456962824" lon="15.927123427391052">
        <ele>354.86376953125</ele>
        <time>2011-11-13T11:47:40Z</time>
      </trkpt>
      <trkpt lat="46.787275727838278" lon="15.927190482616425">
        <ele>354.86376953125</ele>
        <time>2011-11-13T11:47:59Z</time>
      </trkpt>
      <trkpt lat="46.787320990115404" lon="15.927238762378693">
        <ele>355.344482421875</ele>
        <time>2011-11-13T11:48:14Z</time>
      </trkpt>
      <trkpt lat="46.787432888522744" lon="15.927355689927936">
        <ele>354.3831787109375</ele>
        <time>2011-11-13T11:48:29Z</time>
      </trkpt>
      <trkpt lat="46.787530621513724" lon="15.927442023530602">
        <ele>353.902587890625</ele>
        <time>2011-11-13T11:48:47Z</time>
      </trkpt>
      <trkpt lat="46.787586361169815" lon="15.927435737103224">
        <ele>354.3831787109375</ele>
        <time>2011-11-13T11:49:08Z</time>
      </trkpt>
      <trkpt lat="46.787574961781502" lon="15.927368681877851">
        <ele>354.86376953125</ele>
        <time>2011-11-13T11:49:22Z</time>
      </trkpt>
      <trkpt lat="46.787535650655627" lon="15.927362563088536">
        <ele>354.3831787109375</ele>
        <time>2011-11-13T11:50:24Z</time>
      </trkpt>
      <trkpt lat="46.787534477189183" lon="15.927380248904228">
        <ele>353.902587890625</ele>
        <time>2011-11-13T11:50:41Z</time>
      </trkpt>
      <trkpt lat="46.787542020902038" lon="15.927459038794041">
        <ele>352.941162109375</ele>
        <time>2011-11-13T11:50:59Z</time>
      </trkpt>
      <trkpt lat="46.787654422223568" lon="15.927600525319576">
        <ele>351.4991455078125</ele>
        <time>2011-11-13T11:51:16Z</time>
      </trkpt>
      <trkpt lat="46.787768835201859" lon="15.927720135077834">
        <ele>351.0184326171875</ele>
        <time>2011-11-13T11:51:35Z</time>
      </trkpt>
      <trkpt lat="46.787931947037578" lon="15.927895568311214">
        <ele>351.4991455078125</ele>
        <time>2011-11-13T11:51:54Z</time>
      </trkpt>
      <trkpt lat="46.78811676800251" lon="15.92813964933157">
        <ele>351.0184326171875</ele>
        <time>2011-11-13T11:52:19Z</time>
      </trkpt>
      <trkpt lat="46.788249956443906" lon="15.928266132250428">
        <ele>350.0572509765625</ele>
        <time>2011-11-13T11:52:39Z</time>
      </trkpt>
      <trkpt lat="46.788258925080299" lon="15.928267892450094">
        <ele>350.0572509765625</ele>
        <time>2011-11-13T11:53:15Z</time>
      </trkpt>
      <trkpt lat="46.788326650857925" lon="15.928306616842747">
        <ele>349.0958251953125</ele>
        <time>2011-11-13T11:53:29Z</time>
      </trkpt>
      <trkpt lat="46.788428323343396" lon="15.928446426987648">
        <ele>349.5765380859375</ele>
        <time>2011-11-13T11:53:44Z</time>
      </trkpt>
      <trkpt lat="46.788455480709672" lon="15.928446594625711">
        <ele>349.0958251953125</ele>
        <time>2011-11-13T11:53:46Z</time>
      </trkpt>
      <trkpt lat="46.788672488182783" lon="15.928541645407677">
        <ele>349.0958251953125</ele>
        <time>2011-11-13T11:54:07Z</time>
      </trkpt>
      <trkpt lat="46.788757983595133" lon="15.928557151928544">
        <ele>351.0184326171875</ele>
        <time>2011-11-13T11:54:22Z</time>
      </trkpt>
      <trkpt lat="46.788774831220508" lon="15.928519768640399">
        <ele>351.4991455078125</ele>
        <time>2011-11-13T11:54:45Z</time>
      </trkpt>
      <trkpt lat="46.788807269185781" lon="15.928432680666447">
        <ele>354.3831787109375</ele>
        <time>2011-11-13T11:54:57Z</time>
      </trkpt>
      <trkpt lat="46.788882119581103" lon="15.928289266303182">
        <ele>357.747802734375</ele>
        <time>2011-11-13T11:55:16Z</time>
      </trkpt>
      <trkpt lat="46.788938194513321" lon="15.928233359009027">
        <ele>360.6317138671875</ele>
        <time>2011-11-13T11:55:26Z</time>
      </trkpt>
      <trkpt lat="46.789025198668242" lon="15.928073599934578">
        <ele>363.5157470703125</ele>
        <time>2011-11-13T11:55:49Z</time>
      </trkpt>
      <trkpt lat="46.789060737937689" lon="15.927911745384336">
        <ele>365.9189453125</ele>
        <time>2011-11-13T11:56:07Z</time>
      </trkpt>
      <trkpt lat="46.789105078205466" lon="15.927773946896195">
        <ele>365.9189453125</ele>
        <time>2011-11-13T11:56:25Z</time>
      </trkpt>
      <trkpt lat="46.789070963859558" lon="15.927774282172322">
        <ele>366.3995361328125</ele>
        <time>2011-11-13T11:56:45Z</time>
      </trkpt>
      <trkpt lat="46.789098791778088" lon="15.927706472575665">
        <ele>365.9189453125</ele>
        <time>2011-11-13T11:57:02Z</time>
      </trkpt>
      <trkpt lat="46.789156459271908" lon="15.927559789270163">
        <ele>367.3609619140625</ele>
        <time>2011-11-13T11:57:16Z</time>
      </trkpt>
      <trkpt lat="46.789275817573071" lon="15.927359042689204">
        <ele>368.322265625</ele>
        <time>2011-11-13T11:57:35Z</time>
      </trkpt>
      <trkpt lat="46.789474133402109" lon="15.927196936681867">
        <ele>368.322265625</ele>
        <time>2011-11-13T11:57:56Z</time>
      </trkpt>
      <trkpt lat="46.789487460628152" lon="15.927173886448145">
        <ele>369.28369140625</ele>
        <time>2011-11-13T11:57:58Z</time>
      </trkpt>
      <trkpt lat="46.789599191397429" lon="15.926911029964685">
        <ele>370.244873046875</ele>
        <time>2011-11-13T11:58:20Z</time>
      </trkpt>
      <trkpt lat="46.789707569405437" lon="15.926636690273881">
        <ele>372.16748046875</ele>
        <time>2011-11-13T11:58:42Z</time>
      </trkpt>
      <trkpt lat="46.789773618802428" lon="15.926485061645508">
        <ele>372.648193359375</ele>
        <time>2011-11-13T11:58:54Z</time>
      </trkpt>
      <trkpt lat="46.789782084524632" lon="15.926306862384081">
        <ele>373.6094970703125</ele>
        <time>2011-11-13T11:59:07Z</time>
      </trkpt>
      <trkpt lat="46.789642022922635" lon="15.92619295231998">
        <ele>374.090087890625</ele>
        <time>2011-11-13T11:59:24Z</time>
      </trkpt>
      <trkpt lat="46.789555689319968" lon="15.926146265119314">
        <ele>375.5321044921875</ele>
        <time>2011-11-13T11:59:37Z</time>
      </trkpt>
      <trkpt lat="46.78941604681313" lon="15.926066972315311">
        <ele>376.4935302734375</ele>
        <time>2011-11-13T11:59:54Z</time>
      </trkpt>
      <trkpt lat="46.789300376549363" lon="15.926001844927669">
        <ele>378.8968505859375</ele>
        <time>2011-11-13T12:00:08Z</time>
      </trkpt>
      <trkpt lat="46.789176659658551" lon="15.925948871299624">
        <ele>379.37744140625</ele>
        <time>2011-11-13T12:00:21Z</time>
      </trkpt>
      <trkpt lat="46.78922887891531" lon="15.925827668979764">
        <ele>378.8968505859375</ele>
        <time>2011-11-13T12:00:38Z</time>
      </trkpt>
      <trkpt lat="46.789292832836509" lon="15.925819789990783">
        <ele>379.37744140625</ele>
        <time>2011-11-13T12:00:45Z</time>
      </trkpt>
      <trkpt lat="46.789501793682575" lon="15.925815179944038">
        <ele>379.8580322265625</ele>
        <time>2011-11-13T12:01:05Z</time>
      </trkpt>
      <trkpt lat="46.789687117561698" lon="15.925847366452217">
        <ele>379.37744140625</ele>
        <time>2011-11-13T12:01:22Z</time>
      </trkpt>
      <trkpt lat="46.789864059537649" lon="15.925816772505641">
        <ele>379.37744140625</ele>
        <time>2011-11-13T12:01:39Z</time>
      </trkpt>
      <trkpt lat="46.790070924907923" lon="15.92578886076808">
        <ele>379.8580322265625</ele>
        <time>2011-11-13T12:01:56Z</time>
      </trkpt>
      <trkpt lat="46.790246525779366" lon="15.925786681473255">
        <ele>379.8580322265625</ele>
        <time>2011-11-13T12:02:12Z</time>
      </trkpt>
      <trkpt lat="46.7903932929039" lon="15.92573706060648">
        <ele>379.37744140625</ele>
        <time>2011-11-13T12:02:25Z</time>
      </trkpt>
      <trkpt lat="46.790593033656478" lon="15.925697078928351">
        <ele>379.37744140625</ele>
        <time>2011-11-13T12:02:42Z</time>
      </trkpt>
      <trkpt lat="46.790799647569656" lon="15.925692217424512">
        <ele>379.37744140625</ele>
        <time>2011-11-13T12:03:02Z</time>
      </trkpt>
      <trkpt lat="46.791028222069144" lon="15.925624240189791">
        <ele>380.3387451171875</ele>
        <time>2011-11-13T12:03:21Z</time>
      </trkpt>
      <trkpt lat="46.791179934516549" lon="15.925600854679942">
        <ele>380.8194580078125</ele>
        <time>2011-11-13T12:03:35Z</time>
      </trkpt>
      <trkpt lat="46.791383195668459" lon="15.925596076995134">
        <ele>381.300048828125</ele>
        <time>2011-11-13T12:03:54Z</time>
      </trkpt>
      <trkpt lat="46.79156256839633" lon="15.925591131672263">
        <ele>382.2613525390625</ele>
        <time>2011-11-13T12:04:10Z</time>
      </trkpt>
      <trkpt lat="46.791760129854083" lon="15.925640752539039">
        <ele>383.7032470703125</ele>
        <time>2011-11-13T12:04:28Z</time>
      </trkpt>
      <trkpt lat="46.79197789169848" lon="15.925731360912323">
        <ele>385.1453857421875</ele>
        <time>2011-11-13T12:04:49Z</time>
      </trkpt>
      <trkpt lat="46.79215969517827" lon="15.925784166902304">
        <ele>386.106689453125</ele>
        <time>2011-11-13T12:05:08Z</time>
      </trkpt>
      <trkpt lat="46.792180649936199" lon="15.925796739757061">
        <ele>386.106689453125</ele>
        <time>2011-11-13T12:05:10Z</time>
      </trkpt>
      <trkpt lat="46.792372260242701" lon="15.925910398364067">
        <ele>386.106689453125</ele>
        <time>2011-11-13T12:05:29Z</time>
      </trkpt>
      <trkpt lat="46.792624723166227" lon="15.925944093614817">
        <ele>387.548583984375</ele>
        <time>2011-11-13T12:05:53Z</time>
      </trkpt>
      <trkpt lat="46.792682725936174" lon="15.925954654812813">
        <ele>387.548583984375</ele>
        <time>2011-11-13T12:05:59Z</time>
      </trkpt>
      <trkpt lat="46.792738884687424" lon="15.926239220425487">
        <ele>386.106689453125</ele>
        <time>2011-11-13T12:06:20Z</time>
      </trkpt>
      <trkpt lat="46.792828990146518" lon="15.926553290337324">
        <ele>384.18408203125</ele>
        <time>2011-11-13T12:06:46Z</time>
      </trkpt>
      <trkpt lat="46.792984222993255" lon="15.926403924822807">
        <ele>387.0679931640625</ele>
        <time>2011-11-13T12:07:05Z</time>
      </trkpt>
      <trkpt lat="46.79313157685101" lon="15.926228323951364">
        <ele>389.47119140625</ele>
        <time>2011-11-13T12:07:28Z</time>
      </trkpt>
      <trkpt lat="46.793263927102089" lon="15.926231760531664">
        <ele>392.8359375</ele>
        <time>2011-11-13T12:07:45Z</time>
      </trkpt>
      <trkpt lat="46.7934584710747" lon="15.926258163526654">
        <ele>395.2391357421875</ele>
        <time>2011-11-13T12:08:08Z</time>
      </trkpt>
      <trkpt lat="46.793654691427946" lon="15.926315328106284">
        <ele>398.1231689453125</ele>
        <time>2011-11-13T12:08:31Z</time>
      </trkpt>
      <trkpt lat="46.79377949796617" lon="15.926391268149018">
        <ele>401.48779296875</ele>
        <time>2011-11-13T12:08:50Z</time>
      </trkpt>
      <trkpt lat="46.793877566233277" lon="15.926530491560698">
        <ele>403.89111328125</ele>
        <time>2011-11-13T12:09:09Z</time>
      </trkpt>
      <trkpt lat="46.79400036111474" lon="15.926616154611111">
        <ele>405.813720703125</ele>
        <time>2011-11-13T12:09:30Z</time>
      </trkpt>
      <trkpt lat="46.794133298099041" lon="15.926686646416783">
        <ele>408.217041015625</ele>
        <time>2011-11-13T12:09:51Z</time>
      </trkpt>
      <trkpt lat="46.79419968277216" lon="15.926767531782389">
        <ele>411.5816650390625</ele>
        <time>2011-11-13T12:10:11Z</time>
      </trkpt>
      <trkpt lat="46.794265983626246" lon="15.926912287250161">
        <ele>414.4654541015625</ele>
        <time>2011-11-13T12:10:29Z</time>
      </trkpt>
      <trkpt lat="46.794314347207546" lon="15.926982192322612">
        <ele>414.9461669921875</ele>
        <time>2011-11-13T12:10:50Z</time>
      </trkpt>
      <trkpt lat="46.794306971132755" lon="15.927049163728952">
        <ele>416.38818359375</ele>
        <time>2011-11-13T12:11:10Z</time>
      </trkpt>
      <trkpt lat="46.794305127114058" lon="15.927084283903241">
        <ele>416.38818359375</ele>
        <time>2011-11-13T12:11:33Z</time>
      </trkpt>
      <trkpt lat="46.794302696362138" lon="15.927157960832119">
        <ele>416.868896484375</ele>
        <time>2011-11-13T12:11:54Z</time>
      </trkpt>
      <trkpt lat="46.79433018900454" lon="15.927047654986382">
        <ele>415.907470703125</ele>
        <time>2011-11-13T12:12:11Z</time>
      </trkpt>
      <trkpt lat="46.794328428804874" lon="15.927025191485882">
        <ele>414.9461669921875</ele>
        <time>2011-11-13T12:12:30Z</time>
      </trkpt>
      <trkpt lat="46.794361537322402" lon="15.927016977220774">
        <ele>415.4268798828125</ele>
        <time>2011-11-13T12:12:51Z</time>
      </trkpt>
      <trkpt lat="46.794471088796854" lon="15.927040781825781">
        <ele>416.38818359375</ele>
        <time>2011-11-13T12:13:05Z</time>
      </trkpt>
      <trkpt lat="46.794647192582488" lon="15.927067352458835">
        <ele>418.310791015625</ele>
        <time>2011-11-13T12:13:26Z</time>
      </trkpt>
      <trkpt lat="46.794834779575467" lon="15.927062574774027">
        <ele>420.2333984375</ele>
        <time>2011-11-13T12:13:52Z</time>
      </trkpt>
      <trkpt lat="46.794873252511024" lon="15.926989233121276">
        <ele>419.7528076171875</ele>
        <time>2011-11-13T12:14:11Z</time>
      </trkpt>
      <trkpt lat="46.794854644685984" lon="15.926817655563354">
        <ele>418.79150390625</ele>
        <time>2011-11-13T12:14:51Z</time>
      </trkpt>
      <trkpt lat="46.794874928891659" lon="15.926776584237814">
        <ele>419.272216796875</ele>
        <time>2011-11-13T12:15:09Z</time>
      </trkpt>
      <trkpt lat="46.794864283874631" lon="15.926894433796406">
        <ele>420.2333984375</ele>
        <time>2011-11-13T12:15:28Z</time>
      </trkpt>
      <trkpt lat="46.794849699363112" lon="15.927006583660841">
        <ele>421.6754150390625</ele>
        <time>2011-11-13T12:15:45Z</time>
      </trkpt>
      <trkpt lat="46.794778453186154" lon="15.927075566723943">
        <ele>420.2333984375</ele>
        <time>2011-11-13T12:16:27Z</time>
      </trkpt>
      <trkpt lat="46.794768227264285" lon="15.927076824009418">
        <ele>419.7528076171875</ele>
        <time>2011-11-13T12:16:28Z</time>
      </trkpt>
      <trkpt lat="46.794611234217882" lon="15.927070118486881">
        <ele>417.349609375</ele>
        <time>2011-11-13T12:16:44Z</time>
      </trkpt>
      <trkpt lat="46.79440981708467" lon="15.927046397700906">
        <ele>414.9461669921875</ele>
        <time>2011-11-13T12:17:05Z</time>
      </trkpt>
      <trkpt lat="46.79433505050838" lon="15.927028376609087">
        <ele>413.5042724609375</ele>
        <time>2011-11-13T12:17:26Z</time>
      </trkpt>
      <trkpt lat="46.794307641685009" lon="15.927063664421439">
        <ele>414.9461669921875</ele>
        <time>2011-11-13T12:17:39Z</time>
      </trkpt>
      <trkpt lat="46.794309820979834" lon="15.927083948627114">
        <ele>415.4268798828125</ele>
        <time>2011-11-13T12:17:52Z</time>
      </trkpt>
      <trkpt lat="46.794305294752121" lon="15.927100377157331">
        <ele>413.98486328125</ele>
        <time>2011-11-13T12:18:19Z</time>
      </trkpt>
      <trkpt lat="46.79427788592875" lon="15.927212694659829">
        <ele>413.5042724609375</ele>
        <time>2011-11-13T12:18:34Z</time>
      </trkpt>
      <trkpt lat="46.794224744662642" lon="15.927347224205732">
        <ele>411.5816650390625</ele>
        <time>2011-11-13T12:18:52Z</time>
      </trkpt>
      <trkpt lat="46.794176129624248" lon="15.92747806571424">
        <ele>408.217041015625</ele>
        <time>2011-11-13T12:19:10Z</time>
      </trkpt>
      <trkpt lat="46.794170681387186" lon="15.927499942481518">
        <ele>407.255615234375</ele>
        <time>2011-11-13T12:19:12Z</time>
      </trkpt>
      <trkpt lat="46.794136147946119" lon="15.927617289125919">
        <ele>404.3717041015625</ele>
        <time>2011-11-13T12:19:24Z</time>
      </trkpt>
      <trkpt lat="46.794107398018241" lon="15.927734216675162">
        <ele>401.007080078125</ele>
        <time>2011-11-13T12:19:34Z</time>
      </trkpt>
      <trkpt lat="46.79409172385931" lon="15.927794650197029">
        <ele>400.5264892578125</ele>
        <time>2011-11-13T12:19:39Z</time>
      </trkpt>
      <trkpt lat="46.794082755222917" lon="15.92801752500236">
        <ele>398.603759765625</ele>
        <time>2011-11-13T12:19:59Z</time>
      </trkpt>
      <trkpt lat="46.794194988906384" lon="15.928109223023057">
        <ele>397.6424560546875</ele>
        <time>2011-11-13T12:20:16Z</time>
      </trkpt>
      <trkpt lat="46.794365560635924" lon="15.928246267139912">
        <ele>396.2005615234375</ele>
        <time>2011-11-13T12:20:35Z</time>
      </trkpt>
      <trkpt lat="46.794485673308372" lon="15.928518427535892">
        <ele>394.758544921875</ele>
        <time>2011-11-13T12:20:56Z</time>
      </trkpt>
      <trkpt lat="46.794588854536414" lon="15.928770639002323">
        <ele>391.393798828125</ele>
        <time>2011-11-13T12:21:15Z</time>
      </trkpt>
      <trkpt lat="46.794597823172808" lon="15.928804250434041">
        <ele>391.87451171875</ele>
        <time>2011-11-13T12:21:28Z</time>
      </trkpt>
      <trkpt lat="46.794574270024896" lon="15.929059647023678">
        <ele>389.951904296875</ele>
        <time>2011-11-13T12:21:47Z</time>
      </trkpt>
      <trkpt lat="46.794528337195516" lon="15.929314792156219">
        <ele>387.548583984375</ele>
        <time>2011-11-13T12:22:02Z</time>
      </trkpt>
      <trkpt lat="46.794446781277657" lon="15.929512521252036">
        <ele>384.18408203125</ele>
        <time>2011-11-13T12:22:16Z</time>
      </trkpt>
      <trkpt lat="46.794439572840929" lon="15.929516544565558">
        <ele>384.18408203125</ele>
        <time>2011-11-13T12:22:17Z</time>
      </trkpt>
      <trkpt lat="46.794494725763798" lon="15.929589383304119">
        <ele>384.664794921875</ele>
        <time>2011-11-13T12:22:30Z</time>
      </trkpt>
      <trkpt lat="46.794535294175148" lon="15.929606566205621">
        <ele>385.1453857421875</ele>
        <time>2011-11-13T12:22:36Z</time>
      </trkpt>
      <trkpt lat="46.794718271121383" lon="15.929621318355203">
        <ele>386.58740234375</ele>
        <time>2011-11-13T12:22:54Z</time>
      </trkpt>
      <trkpt lat="46.794929662719369" lon="15.92957672663033">
        <ele>388.029296875</ele>
        <time>2011-11-13T12:23:12Z</time>
      </trkpt>
      <trkpt lat="46.795162931084633" lon="15.929572619497776">
        <ele>388.510009765625</ele>
        <time>2011-11-13T12:23:30Z</time>
      </trkpt>
      <trkpt lat="46.795358145609498" lon="15.929616959765553">
        <ele>386.106689453125</ele>
        <time>2011-11-13T12:23:47Z</time>
      </trkpt>
      <trkpt lat="46.795571548864245" lon="15.929784262552857">
        <ele>382.7420654296875</ele>
        <time>2011-11-13T12:24:05Z</time>
      </trkpt>
      <trkpt lat="46.795849073678255" lon="15.929984841495752">
        <ele>381.300048828125</ele>
        <time>2011-11-13T12:24:28Z</time>
      </trkpt>
      <trkpt lat="46.79607504978776" lon="15.929987942799926">
        <ele>380.8194580078125</ele>
        <time>2011-11-13T12:24:48Z</time>
      </trkpt>
      <trkpt lat="46.79628124460578" lon="15.930016273632646">
        <ele>380.3387451171875</ele>
        <time>2011-11-13T12:25:06Z</time>
      </trkpt>
      <trkpt lat="46.796529265120625" lon="15.930019626393914">
        <ele>377.9354248046875</ele>
        <time>2011-11-13T12:25:26Z</time>
      </trkpt>
      <trkpt lat="46.796665554866195" lon="15.930029265582561">
        <ele>378.4161376953125</ele>
        <time>2011-11-13T12:25:43Z</time>
      </trkpt>
      <trkpt lat="46.796755073592067" lon="15.930000431835651">
        <ele>377.9354248046875</ele>
        <time>2011-11-13T12:26:04Z</time>
      </trkpt>
      <trkpt lat="46.796993622556329" lon="15.929862968623638">
        <ele>378.8968505859375</ele>
        <time>2011-11-13T12:26:29Z</time>
      </trkpt>
      <trkpt lat="46.797059420496225" lon="15.930042257532477">
        <ele>377.9354248046875</ele>
        <time>2011-11-13T12:26:45Z</time>
      </trkpt>
      <trkpt lat="46.797094373032451" lon="15.930244093760848">
        <ele>376.0128173828125</ele>
        <time>2011-11-13T12:27:05Z</time>
      </trkpt>
      <trkpt lat="46.797075178474188" lon="15.930290445685387">
        <ele>376.0128173828125</ele>
        <time>2011-11-13T12:27:18Z</time>
      </trkpt>
      <trkpt lat="46.797064282000065" lon="15.930287092924118">
        <ele>376.0128173828125</ele>
        <time>2011-11-13T12:27:52Z</time>
      </trkpt>
      <trkpt lat="46.797126643359661" lon="15.930194053798914">
        <ele>376.0128173828125</ele>
        <time>2011-11-13T12:28:23Z</time>
      </trkpt>
      <trkpt lat="46.797129157930613" lon="15.930165220052004">
        <ele>376.0128173828125</ele>
        <time>2011-11-13T12:28:45Z</time>
      </trkpt>
      <trkpt lat="46.797120692208409" lon="15.930155077949166">
        <ele>375.5321044921875</ele>
        <time>2011-11-13T12:35:07Z</time>
      </trkpt>
      <trkpt lat="46.79706503637135" lon="15.930044269189239">
        <ele>376.4935302734375</ele>
        <time>2011-11-13T12:37:46Z</time>
      </trkpt>
      <trkpt lat="46.797042237594724" lon="15.92980538494885">
        <ele>378.4161376953125</ele>
        <time>2011-11-13T12:38:06Z</time>
      </trkpt>
      <trkpt lat="46.79715639911592" lon="15.929769175127149">
        <ele>380.8194580078125</ele>
        <time>2011-11-13T12:38:20Z</time>
      </trkpt>
      <trkpt lat="46.797326048836112" lon="15.929817538708448">
        <ele>381.300048828125</ele>
        <time>2011-11-13T12:38:38Z</time>
      </trkpt>
      <trkpt lat="46.797470971941948" lon="15.929951146245003">
        <ele>381.300048828125</ele>
        <time>2011-11-13T12:38:55Z</time>
      </trkpt>
      <trkpt lat="46.797502320259809" lon="15.929959863424301">
        <ele>380.3387451171875</ele>
        <time>2011-11-13T12:38:58Z</time>
      </trkpt>
      <trkpt lat="46.797725027427077" lon="15.93010344542563">
        <ele>378.4161376953125</ele>
        <time>2011-11-13T12:39:20Z</time>
      </trkpt>
      <trkpt lat="46.797970617190003" lon="15.930297067388892">
        <ele>376.0128173828125</ele>
        <time>2011-11-13T12:39:46Z</time>
      </trkpt>
      <trkpt lat="46.798039767891169" lon="15.930459760129452">
        <ele>375.051513671875</ele>
        <time>2011-11-13T12:40:05Z</time>
      </trkpt>
      <trkpt lat="46.798040186986327" lon="15.930469986051321">
        <ele>375.5321044921875</ele>
        <time>2011-11-13T12:40:25Z</time>
      </trkpt>
      <trkpt lat="46.798149570822716" lon="15.930543160066009">
        <ele>375.051513671875</ele>
        <time>2011-11-13T12:40:39Z</time>
      </trkpt>
      <trkpt lat="46.798357525840402" lon="15.930781373754144">
        <ele>373.6094970703125</ele>
        <time>2011-11-13T12:41:03Z</time>
      </trkpt>
      <trkpt lat="46.798575455322862" lon="15.930887572467327">
        <ele>372.16748046875</ele>
        <time>2011-11-13T12:41:24Z</time>
      </trkpt>
      <trkpt lat="46.798662124201655" lon="15.930915735661983">
        <ele>371.6868896484375</ele>
        <time>2011-11-13T12:41:39Z</time>
      </trkpt>
      <trkpt lat="46.798927746713161" lon="15.93092487193644">
        <ele>369.7642822265625</ele>
        <time>2011-11-13T12:42:02Z</time>
      </trkpt>
      <trkpt lat="46.79916906170547" lon="15.930909784510732">
        <ele>367.841552734375</ele>
        <time>2011-11-13T12:42:23Z</time>
      </trkpt>
      <trkpt lat="46.799411466345191" lon="15.930860247462988">
        <ele>366.3995361328125</ele>
        <time>2011-11-13T12:42:43Z</time>
      </trkpt>
      <trkpt lat="46.79967574775219" lon="15.930842729285359">
        <ele>364.9576416015625</ele>
        <time>2011-11-13T12:43:05Z</time>
      </trkpt>
      <trkpt lat="46.799858557060361" lon="15.930877681821585">
        <ele>363.0350341796875</ele>
        <time>2011-11-13T12:43:21Z</time>
      </trkpt>
      <trkpt lat="46.799863334745169" lon="15.930829737335443">
        <ele>362.5543212890625</ele>
        <time>2011-11-13T12:43:30Z</time>
      </trkpt>
      <trkpt lat="46.799889486283064" lon="15.930853541940451">
        <ele>363.0350341796875</ele>
        <time>2011-11-13T12:43:32Z</time>
      </trkpt>
      <trkpt lat="46.800126945599914" lon="15.931164175271988">
        <ele>360.151123046875</ele>
        <time>2011-11-13T12:43:54Z</time>
      </trkpt>
      <trkpt lat="46.800247058272362" lon="15.931492662057281">
        <ele>357.26708984375</ele>
        <time>2011-11-13T12:44:17Z</time>
      </trkpt>
      <trkpt lat="46.8003383371979" lon="15.931647559627891">
        <ele>354.86376953125</ele>
        <time>2011-11-13T12:44:32Z</time>
      </trkpt>
      <trkpt lat="46.800439925864339" lon="15.931946458294988">
        <ele>351.4991455078125</ele>
        <time>2011-11-13T12:44:52Z</time>
      </trkpt>
      <trkpt lat="46.800534976646304" lon="15.932257678359747">
        <ele>348.615234375</ele>
        <time>2011-11-13T12:45:15Z</time>
      </trkpt>
      <trkpt lat="46.800577137619257" lon="15.932601671665907">
        <ele>345.7313232421875</ele>
        <time>2011-11-13T12:45:37Z</time>
      </trkpt>
      <trkpt lat="46.800513686612248" lon="15.932782553136349">
        <ele>342.36669921875</ele>
        <time>2011-11-13T12:45:49Z</time>
      </trkpt>
      <trkpt lat="46.800332888960838" lon="15.932965027168393">
        <ele>340.9246826171875</ele>
        <time>2011-11-13T12:46:09Z</time>
      </trkpt>
      <trkpt lat="46.800068020820618" lon="15.933029316365719">
        <ele>338.040771484375</ele>
        <time>2011-11-13T12:46:35Z</time>
      </trkpt>
      <trkpt lat="46.79989174939692" lon="15.933264093473554">
        <ele>335.15673828125</ele>
        <time>2011-11-13T12:46:58Z</time>
      </trkpt>
      <trkpt lat="46.79991127923131" lon="15.933444136753678">
        <ele>333.234130859375</ele>
        <time>2011-11-13T12:47:17Z</time>
      </trkpt>
      <trkpt lat="46.7999601457268" lon="15.933530051261187">
        <ele>333.7147216796875</ele>
        <time>2011-11-13T12:47:39Z</time>
      </trkpt>
      <trkpt lat="46.800112361088395" lon="15.933590233325958">
        <ele>334.1954345703125</ele>
        <time>2011-11-13T12:47:55Z</time>
      </trkpt>
      <trkpt lat="46.800426598638296" lon="15.933683272451162">
        <ele>335.6373291015625</ele>
        <time>2011-11-13T12:48:22Z</time>
      </trkpt>
      <trkpt lat="46.800712840631604" lon="15.93368805013597">
        <ele>335.6373291015625</ele>
        <time>2011-11-13T12:48:46Z</time>
      </trkpt>
      <trkpt lat="46.801081141456962" lon="15.933689642697573">
        <ele>334.6761474609375</ele>
        <time>2011-11-13T12:49:15Z</time>
      </trkpt>
      <trkpt lat="46.801415160298347" lon="15.933658378198743">
        <ele>335.15673828125</ele>
        <time>2011-11-13T12:49:43Z</time>
      </trkpt>
      <trkpt lat="46.801558071747422" lon="15.933629628270864">
        <ele>335.6373291015625</ele>
        <time>2011-11-13T12:49:54Z</time>
      </trkpt>
      <trkpt lat="46.80174557492137" lon="15.933718727901578">
        <ele>335.15673828125</ele>
        <time>2011-11-13T12:50:14Z</time>
      </trkpt>
      <trkpt lat="46.801923355087638" lon="15.933939171954989">
        <ele>334.6761474609375</ele>
        <time>2011-11-13T12:50:37Z</time>
      </trkpt>
      <trkpt lat="46.801930731162429" lon="15.933988122269511">
        <ele>335.15673828125</ele>
        <time>2011-11-13T12:51:07Z</time>
      </trkpt>
      <trkpt lat="46.802051598206162" lon="15.934347957372665">
        <ele>332.7535400390625</ele>
        <time>2011-11-13T12:51:32Z</time>
      </trkpt>
      <trkpt lat="46.802146146073937" lon="15.934632355347276">
        <ele>330.8309326171875</ele>
        <time>2011-11-13T12:51:54Z</time>
      </trkpt>
      <trkpt lat="46.802187887951732" lon="15.934689939022064">
        <ele>329.8695068359375</ele>
        <time>2011-11-13T12:52:00Z</time>
      </trkpt>
      <trkpt lat="46.802309844642878" lon="15.934765292331576">
        <ele>327.4661865234375</ele>
        <time>2011-11-13T12:52:13Z</time>
      </trkpt>
      <trkpt lat="46.802447475492954" lon="15.934826899319887">
        <ele>324.582275390625</ele>
        <time>2011-11-13T12:52:26Z</time>
      </trkpt>
      <trkpt lat="46.80269599892199" lon="15.935024963691831">
        <ele>325.5435791015625</ele>
        <time>2011-11-13T12:52:49Z</time>
      </trkpt>
      <trkpt lat="46.802706141024828" lon="15.935054132714868">
        <ele>324.582275390625</ele>
        <time>2011-11-13T12:53:15Z</time>
      </trkpt>
      <trkpt lat="46.802737154066563" lon="15.935095036402345">
        <ele>325.06298828125</ele>
        <time>2011-11-13T12:53:41Z</time>
      </trkpt>
      <trkpt lat="46.8027438595891" lon="15.93512118794024">
        <ele>325.5435791015625</ele>
        <time>2011-11-13T12:54:42Z</time>
      </trkpt>
      <trkpt lat="46.802823068574071" lon="15.935244485735893">
        <ele>324.1015625</ele>
        <time>2011-11-13T12:55:10Z</time>
      </trkpt>
      <trkpt lat="46.802857769653201" lon="15.935332160443068">
        <ele>321.6983642578125</ele>
        <time>2011-11-13T12:55:20Z</time>
      </trkpt>
      <trkpt lat="46.802908899262547" lon="15.935401981696486">
        <ele>320.25634765625</ele>
        <time>2011-11-13T12:55:32Z</time>
      </trkpt>
      <trkpt lat="46.803091540932655" lon="15.93551161698997">
        <ele>318.8143310546875</ele>
        <time>2011-11-13T12:55:49Z</time>
      </trkpt>
      <trkpt lat="46.803371496498585" lon="15.935659222304821">
        <ele>319.2950439453125</ele>
        <time>2011-11-13T12:56:09Z</time>
      </trkpt>
      <trkpt lat="46.803593616932631" lon="15.93585753813386">
        <ele>318.3336181640625</ele>
        <time>2011-11-13T12:56:32Z</time>
      </trkpt>
      <trkpt lat="46.803620019927621" lon="15.936141768470407">
        <ele>315.930419921875</ele>
        <time>2011-11-13T12:56:49Z</time>
      </trkpt>
      <trkpt lat="46.803658157587051" lon="15.936518451198936">
        <ele>314.0078125</ele>
        <time>2011-11-13T12:57:11Z</time>
      </trkpt>
      <trkpt lat="46.803660336881876" lon="15.936778793111444">
        <ele>311.6044921875</ele>
        <time>2011-11-13T12:57:28Z</time>
      </trkpt>
      <trkpt lat="46.803642148151994" lon="15.937051875516772">
        <ele>309.681884765625</ele>
        <time>2011-11-13T12:57:45Z</time>
      </trkpt>
      <trkpt lat="46.803599735721946" lon="15.937346164137125">
        <ele>306.7978515625</ele>
        <time>2011-11-13T12:58:04Z</time>
      </trkpt>
      <trkpt lat="46.803581463173032" lon="15.937648164108396">
        <ele>304.875244140625</ele>
        <time>2011-11-13T12:58:22Z</time>
      </trkpt>
      <trkpt lat="46.803599484264851" lon="15.937825357541442">
        <ele>303.9139404296875</ele>
        <time>2011-11-13T12:58:37Z</time>
      </trkpt>
      <trkpt lat="46.803667545318604" lon="15.937944129109383">
        <ele>304.3946533203125</ele>
        <time>2011-11-13T12:58:47Z</time>
      </trkpt>
      <trkpt lat="46.803822359070182" lon="15.938083939254284">
        <ele>304.3946533203125</ele>
        <time>2011-11-13T12:59:08Z</time>
      </trkpt>
      <trkpt lat="46.803955966606736" lon="15.938214948400855">
        <ele>304.875244140625</ele>
        <time>2011-11-13T12:59:26Z</time>
      </trkpt>
      <trkpt lat="46.804168028756976" lon="15.938388872891665">
        <ele>303.9139404296875</ele>
        <time>2011-11-13T12:59:46Z</time>
      </trkpt>
      <trkpt lat="46.804331559687853" lon="15.938566736876965">
        <ele>303.9139404296875</ele>
        <time>2011-11-13T13:00:04Z</time>
      </trkpt>
      <trkpt lat="46.804484948515892" lon="15.938746780157089">
        <ele>303.4332275390625</ele>
        <time>2011-11-13T13:00:22Z</time>
      </trkpt>
      <trkpt lat="46.804623249918222" lon="15.939066968858242">
        <ele>301.9913330078125</ele>
        <time>2011-11-13T13:00:40Z</time>
      </trkpt>
      <trkpt lat="46.80477756075561" lon="15.939367795363069">
        <ele>301.9913330078125</ele>
        <time>2011-11-13T13:01:02Z</time>
      </trkpt>
      <trkpt lat="46.804867666214705" lon="15.939496289938688">
        <ele>301.0299072265625</ele>
        <time>2011-11-13T13:01:14Z</time>
      </trkpt>
      <trkpt lat="46.80487378500402" lon="15.939802899956703">
        <ele>298.1461181640625</ele>
        <time>2011-11-13T13:01:30Z</time>
      </trkpt>
      <trkpt lat="46.804839922115207" lon="15.940009094774723">
        <ele>295.74267578125</ele>
        <time>2011-11-13T13:01:45Z</time>
      </trkpt>
      <trkpt lat="46.804803796112537" lon="15.940212439745665">
        <ele>292.8587646484375</ele>
        <time>2011-11-13T13:01:59Z</time>
      </trkpt>
      <trkpt lat="46.80475409142673" lon="15.940422154963017">
        <ele>292.378173828125</ele>
        <time>2011-11-13T13:02:14Z</time>
      </trkpt>
      <trkpt lat="46.804663147777319" lon="15.940676545724273">
        <ele>289.494140625</ele>
        <time>2011-11-13T13:02:30Z</time>
      </trkpt>
      <trkpt lat="46.80450439453125" lon="15.940787438303232">
        <ele>288.532958984375</ele>
        <time>2011-11-13T13:02:44Z</time>
      </trkpt>
      <trkpt lat="46.804494084790349" lon="15.940795568749309">
        <ele>289.0135498046875</ele>
        <time>2011-11-13T13:02:45Z</time>
      </trkpt>
      <trkpt lat="46.804405236616731" lon="15.940864887088537">
        <ele>288.05224609375</ele>
        <time>2011-11-13T13:02:53Z</time>
      </trkpt>
      <trkpt lat="46.804183619096875" lon="15.940859690308571">
        <ele>287.0908203125</ele>
        <time>2011-11-13T13:03:10Z</time>
      </trkpt>
      <trkpt lat="46.803985387086868" lon="15.940789533779025">
        <ele>285.6488037109375</ele>
        <time>2011-11-13T13:03:27Z</time>
      </trkpt>
      <trkpt lat="46.803818168118596" lon="15.940820798277855">
        <ele>285.168212890625</ele>
        <time>2011-11-13T13:03:43Z</time>
      </trkpt>
      <trkpt lat="46.803627898916602" lon="15.940844854339957">
        <ele>284.2069091796875</ele>
        <time>2011-11-13T13:04:00Z</time>
      </trkpt>
      <trkpt lat="46.803479371592402" lon="15.940857762470841">
        <ele>283.24560546875</ele>
        <time>2011-11-13T13:04:12Z</time>
      </trkpt>
      <trkpt lat="46.803283151239157" lon="15.940829096361995">
        <ele>283.7261962890625</ele>
        <time>2011-11-13T13:04:26Z</time>
      </trkpt>
      <trkpt lat="46.803034460172057" lon="15.940803531557322">
        <ele>283.24560546875</ele>
        <time>2011-11-13T13:04:46Z</time>
      </trkpt>
      <trkpt lat="46.803006464615464" lon="15.941023891791701">
        <ele>279.880859375</ele>
        <time>2011-11-13T13:05:01Z</time>
      </trkpt>
      <trkpt lat="46.802987940609455" lon="15.941149033606052">
        <ele>278.43896484375</ele>
        <time>2011-11-13T13:05:12Z</time>
      </trkpt>
      <trkpt lat="46.802958436310291" lon="15.941583216190338">
        <ele>277.4776611328125</ele>
        <time>2011-11-13T13:05:37Z</time>
      </trkpt>
      <trkpt lat="46.802948042750359" lon="15.941977920010686">
        <ele>274.59375</ele>
        <time>2011-11-13T13:06:00Z</time>
      </trkpt>
      <trkpt lat="46.802933625876904" lon="15.942310178652406">
        <ele>273.6324462890625</ele>
        <time>2011-11-13T13:06:23Z</time>
      </trkpt>
      <trkpt lat="46.802941337227821" lon="15.942436158657074">
        <ele>273.15185546875</ele>
        <time>2011-11-13T13:06:37Z</time>
      </trkpt>
      <trkpt lat="46.802918035537004" lon="15.942469434812665">
        <ele>272.671142578125</ele>
        <time>2011-11-13T13:06:42Z</time>
      </trkpt>
      <trkpt lat="46.802853075787425" lon="15.942537160590291">
        <ele>270.7484130859375</ele>
        <time>2011-11-13T13:06:57Z</time>
      </trkpt>
      <trkpt lat="46.802770765498281" lon="15.942606143653393">
        <ele>270.2677001953125</ele>
        <time>2011-11-13T13:07:09Z</time>
      </trkpt>
      <trkpt lat="46.80272969417274" lon="15.942705972120166">
        <ele>270.2677001953125</ele>
        <time>2011-11-13T13:07:41Z</time>
      </trkpt>
      <trkpt lat="46.802717540413141" lon="15.942744445055723">
        <ele>270.2677001953125</ele>
        <time>2011-11-13T13:08:07Z</time>
      </trkpt>
      <trkpt lat="46.802704464644194" lon="15.942791886627674">
        <ele>269.3065185546875</ele>
        <time>2011-11-13T13:08:12Z</time>
      </trkpt>
      <trkpt lat="46.802628189325333" lon="15.942977126687765">
        <ele>267.3839111328125</ele>
        <time>2011-11-13T13:08:30Z</time>
      </trkpt>
      <trkpt lat="46.802605642005801" lon="15.943002691492438">
        <ele>266.9031982421875</ele>
        <time>2011-11-13T13:08:34Z</time>
      </trkpt>
      <trkpt lat="46.802453761920333" lon="15.943073770031333">
        <ele>267.3839111328125</ele>
        <time>2011-11-13T13:08:50Z</time>
      </trkpt>
      <trkpt lat="46.802351754158735" lon="15.943095395341516">
        <ele>267.3839111328125</ele>
        <time>2011-11-13T13:09:03Z</time>
      </trkpt>
      <trkpt lat="46.802254691720009" lon="15.943158427253366">
        <ele>267.3839111328125</ele>
        <time>2011-11-13T13:09:18Z</time>
      </trkpt>
      <trkpt lat="46.802100632339716" lon="15.943263536319137">
        <ele>267.3839111328125</ele>
        <time>2011-11-13T13:09:35Z</time>
      </trkpt>
      <trkpt lat="46.802110942080617" lon="15.94336973503232">
        <ele>267.864501953125</ele>
        <time>2011-11-13T13:09:53Z</time>
      </trkpt>
      <trkpt lat="46.802297858521342" lon="15.943394377827644">
        <ele>267.864501953125</ele>
        <time>2011-11-13T13:10:12Z</time>
      </trkpt>
      <trkpt lat="46.802359046414495" lon="15.94341273419559">
        <ele>267.864501953125</ele>
        <time>2011-11-13T13:10:18Z</time>
      </trkpt>
      <trkpt lat="46.802488043904305" lon="15.943644158542156">
        <ele>269.787109375</ele>
        <time>2011-11-13T13:10:39Z</time>
      </trkpt>
      <trkpt lat="46.802600529044867" lon="15.943783717229962">
        <ele>272.671142578125</ele>
        <time>2011-11-13T13:10:57Z</time>
      </trkpt>
      <trkpt lat="46.802626764401793" lon="15.943795451894403">
        <ele>272.671142578125</ele>
        <time>2011-11-13T13:11:00Z</time>
      </trkpt>
      <trkpt lat="46.802666243165731" lon="15.943827973678708">
        <ele>272.1904296875</ele>
        <time>2011-11-13T13:11:04Z</time>
      </trkpt>
      <trkpt lat="46.80286506190896" lon="15.943906931206584">
        <ele>274.113037109375</ele>
        <time>2011-11-13T13:11:26Z</time>
      </trkpt>
      <trkpt lat="46.803051559254527" lon="15.943986224010587">
        <ele>275.5550537109375</ele>
        <time>2011-11-13T13:11:48Z</time>
      </trkpt>
      <trkpt lat="46.803215341642499" lon="15.944039784371853">
        <ele>277.4776611328125</ele>
        <time>2011-11-13T13:12:09Z</time>
      </trkpt>
      <trkpt lat="46.803383147343993" lon="15.944111868739128">
        <ele>280.3616943359375</ele>
        <time>2011-11-13T13:12:33Z</time>
      </trkpt>
      <trkpt lat="46.803494542837143" lon="15.944206332787871">
        <ele>283.24560546875</ele>
        <time>2011-11-13T13:12:51Z</time>
      </trkpt>
      <trkpt lat="46.803626557812095" lon="15.944345891475677">
        <ele>286.1295166015625</ele>
        <time>2011-11-13T13:13:13Z</time>
      </trkpt>
      <trkpt lat="46.803758656606078" lon="15.944550158455968">
        <ele>289.494140625</ele>
        <time>2011-11-13T13:13:35Z</time>
      </trkpt>
      <trkpt lat="46.803784975782037" lon="15.944631295278668">
        <ele>290.9361572265625</ele>
        <time>2011-11-13T13:13:55Z</time>
      </trkpt>
      <trkpt lat="46.803849097341299" lon="15.9447608795017">
        <ele>293.820068359375</ele>
        <time>2011-11-13T13:14:17Z</time>
      </trkpt>
      <trkpt lat="46.803936855867505" lon="15.944886524230242">
        <ele>294.7813720703125</ele>
        <time>2011-11-13T13:14:36Z</time>
      </trkpt>
      <trkpt lat="46.804049424827099" lon="15.944978222250938">
        <ele>296.2235107421875</ele>
        <time>2011-11-13T13:14:55Z</time>
      </trkpt>
      <trkpt lat="46.804128466174006" lon="15.945141166448593">
        <ele>299.1072998046875</ele>
        <time>2011-11-13T13:15:14Z</time>
      </trkpt>
      <trkpt lat="46.804229887202382" lon="15.94528223387897">
        <ele>299.5880126953125</ele>
        <time>2011-11-13T13:15:32Z</time>
      </trkpt>
      <trkpt lat="46.804338432848454" lon="15.945426654070616">
        <ele>299.5880126953125</ele>
        <time>2011-11-13T13:15:46Z</time>
      </trkpt>
      <trkpt lat="46.804351173341274" lon="15.94566679559648">
        <ele>302.471923828125</ele>
        <time>2011-11-13T13:16:01Z</time>
      </trkpt>
      <trkpt lat="46.804304569959641" lon="15.945813395082951">
        <ele>305.836669921875</ele>
        <time>2011-11-13T13:16:18Z</time>
      </trkpt>
      <trkpt lat="46.804238185286522" lon="15.945909535512328">
        <ele>309.201171875</ele>
        <time>2011-11-13T13:16:31Z</time>
      </trkpt>
      <trkpt lat="46.804152941331267" lon="15.945995533838868">
        <ele>312.085205078125</ele>
        <time>2011-11-13T13:16:49Z</time>
      </trkpt>
      <trkpt lat="46.804065182805061" lon="15.946113467216492">
        <ele>314.4884033203125</ele>
        <time>2011-11-13T13:17:09Z</time>
      </trkpt>
      <trkpt lat="46.803964097052813" lon="15.946206841617823">
        <ele>317.3724365234375</ele>
        <time>2011-11-13T13:17:29Z</time>
      </trkpt>
      <trkpt lat="46.803878350183368" lon="15.946300970390439">
        <ele>320.25634765625</ele>
        <time>2011-11-13T13:17:46Z</time>
      </trkpt>
      <trkpt lat="46.803809618577361" lon="15.946392333135009">
        <ele>322.178955078125</ele>
        <time>2011-11-13T13:18:05Z</time>
      </trkpt>
      <trkpt lat="46.803757064044476" lon="15.946490149945021">
        <ele>324.582275390625</ele>
        <time>2011-11-13T13:18:22Z</time>
      </trkpt>
      <trkpt lat="46.803668132051826" lon="15.94656147994101">
        <ele>327.94677734375</ele>
        <time>2011-11-13T13:18:41Z</time>
      </trkpt>
      <trkpt lat="46.803564699366689" lon="15.946645466610789">
        <ele>330.3502197265625</ele>
        <time>2011-11-13T13:18:58Z</time>
      </trkpt>
      <trkpt lat="46.803513737395406" lon="15.946802627295256">
        <ele>331.7921142578125</ele>
        <time>2011-11-13T13:19:13Z</time>
      </trkpt>
      <trkpt lat="46.80354424752295" lon="15.946870353072882">
        <ele>333.234130859375</ele>
        <time>2011-11-13T13:19:33Z</time>
      </trkpt>
      <trkpt lat="46.803566459566355" lon="15.946862641721964">
        <ele>333.234130859375</ele>
        <time>2011-11-13T13:19:37Z</time>
      </trkpt>
      <trkpt lat="46.803704341873527" lon="15.946780582889915">
        <ele>331.7921142578125</ele>
        <time>2011-11-13T13:19:56Z</time>
      </trkpt>
      <trkpt lat="46.803832836449146" lon="15.946768261492252">
        <ele>331.3115234375</ele>
        <time>2011-11-13T13:20:11Z</time>
      </trkpt>
      <trkpt lat="46.803898299112916" lon="15.946836825460196">
        <ele>331.7921142578125</ele>
        <time>2011-11-13T13:20:26Z</time>
      </trkpt>
      <trkpt lat="46.803948758170009" lon="15.946937073022127">
        <ele>331.7921142578125</ele>
        <time>2011-11-13T13:20:46Z</time>
      </trkpt>
      <trkpt lat="46.80397474206984" lon="15.947014186531305">
        <ele>332.7535400390625</ele>
        <time>2011-11-13T13:21:01Z</time>
      </trkpt>
      <trkpt lat="46.804030230268836" lon="15.94721719622612">
        <ele>334.1954345703125</ele>
        <time>2011-11-13T13:21:17Z</time>
      </trkpt>
      <trkpt lat="46.804071553051472" lon="15.947469072416425">
        <ele>336.1181640625</ele>
        <time>2011-11-13T13:21:37Z</time>
      </trkpt>
      <trkpt lat="46.804089238867164" lon="15.947739640250802">
        <ele>338.521484375</ele>
        <time>2011-11-13T13:21:56Z</time>
      </trkpt>
      <trkpt lat="46.804100051522255" lon="15.948005681857467">
        <ele>341.4052734375</ele>
        <time>2011-11-13T13:22:16Z</time>
      </trkpt>
      <trkpt lat="46.804134836420417" lon="15.948197375983">
        <ele>344.2894287109375</ele>
        <time>2011-11-13T13:22:33Z</time>
      </trkpt>
      <trkpt lat="46.804234245792031" lon="15.948404241353273">
        <ele>346.2120361328125</ele>
        <time>2011-11-13T13:22:55Z</time>
      </trkpt>
      <trkpt lat="46.804298870265484" lon="15.948527455329895">
        <ele>347.1732177734375</ele>
        <time>2011-11-13T13:23:16Z</time>
      </trkpt>
      <trkpt lat="46.804360644891858" lon="15.948641868308187">
        <ele>348.1346435546875</ele>
        <time>2011-11-13T13:23:33Z</time>
      </trkpt>
      <trkpt lat="46.804459467530251" lon="15.948832891881466">
        <ele>350.0572509765625</ele>
        <time>2011-11-13T13:23:52Z</time>
      </trkpt>
      <trkpt lat="46.80453272536397" lon="15.948992064222693">
        <ele>351.0184326171875</ele>
        <time>2011-11-13T13:24:10Z</time>
      </trkpt>
      <trkpt lat="46.804610677063465" lon="15.949280820786953">
        <ele>353.902587890625</ele>
        <time>2011-11-13T13:24:28Z</time>
      </trkpt>
      <trkpt lat="46.804539263248444" lon="15.949432533234358">
        <ele>356.786376953125</ele>
        <time>2011-11-13T13:24:48Z</time>
      </trkpt>
      <trkpt lat="46.804502131417394" lon="15.949420547112823">
        <ele>356.786376953125</ele>
        <time>2011-11-13T13:25:11Z</time>
      </trkpt>
      <trkpt lat="46.804264253005385" lon="15.949348630383611">
        <ele>356.3057861328125</ele>
        <time>2011-11-13T13:25:32Z</time>
      </trkpt>
      <trkpt lat="46.804041881114244" lon="15.949297668412328">
        <ele>356.3057861328125</ele>
        <time>2011-11-13T13:25:52Z</time>
      </trkpt>
      <trkpt lat="46.803782964125276" lon="15.949188787490129">
        <ele>356.3057861328125</ele>
        <time>2011-11-13T13:26:16Z</time>
      </trkpt>
      <trkpt lat="46.803636197000742" lon="15.949070267379284">
        <ele>358.2283935546875</ele>
        <time>2011-11-13T13:26:35Z</time>
      </trkpt>
      <trkpt lat="46.803599651902914" lon="15.949029279872775">
        <ele>358.2283935546875</ele>
        <time>2011-11-13T13:26:53Z</time>
      </trkpt>
      <trkpt lat="46.803593449294567" lon="15.949033554643393">
        <ele>358.2283935546875</ele>
        <time>2011-11-13T13:27:35Z</time>
      </trkpt>
      <trkpt lat="46.803603591397405" lon="15.949039589613676">
        <ele>358.2283935546875</ele>
        <time>2011-11-13T13:28:02Z</time>
      </trkpt>
      <trkpt lat="46.80360484868288" lon="15.949031040072441">
        <ele>358.2283935546875</ele>
        <time>2011-11-13T13:28:34Z</time>
      </trkpt>
      <trkpt lat="46.803600070998073" lon="15.949029782786965">
        <ele>358.2283935546875</ele>
        <time>2011-11-13T13:29:01Z</time>
      </trkpt>
      <trkpt lat="46.803601328283548" lon="15.949013186618686">
        <ele>357.747802734375</ele>
        <time>2011-11-13T13:29:18Z</time>
      </trkpt>
      <trkpt lat="46.803591437637806" lon="15.94901536591351">
        <ele>358.2283935546875</ele>
        <time>2011-11-13T13:30:22Z</time>
      </trkpt>
      <trkpt lat="46.803589342162013" lon="15.949029950425029">
        <ele>358.2283935546875</ele>
        <time>2011-11-13T13:30:56Z</time>
      </trkpt>
      <trkpt lat="46.803585235029459" lon="15.949027268216014">
        <ele>357.747802734375</ele>
        <time>2011-11-13T13:31:52Z</time>
      </trkpt>
      <trkpt lat="46.803588587790728" lon="15.94902609474957">
        <ele>356.3057861328125</ele>
        <time>2011-11-13T13:32:30Z</time>
      </trkpt>
      <trkpt lat="46.803582469001412" lon="15.949030620977283">
        <ele>357.747802734375</ele>
        <time>2011-11-13T13:33:02Z</time>
      </trkpt>
      <trkpt lat="46.803555563092232" lon="15.948955854400992">
        <ele>356.786376953125</ele>
        <time>2011-11-13T13:33:17Z</time>
      </trkpt>
      <trkpt lat="46.803556736558676" lon="15.948950657621026">
        <ele>356.786376953125</ele>
        <time>2011-11-13T13:33:37Z</time>
      </trkpt>
      <trkpt lat="46.803545588627458" lon="15.948870945721865">
        <ele>356.786376953125</ele>
        <time>2011-11-13T13:34:30Z</time>
      </trkpt>
      <trkpt lat="46.803530417382717" lon="15.948777068406343">
        <ele>356.3057861328125</ele>
        <time>2011-11-13T13:35:14Z</time>
      </trkpt>
      <trkpt lat="46.803514491766691" lon="15.948672462254763">
        <ele>355.8251953125</ele>
        <time>2011-11-13T13:35:29Z</time>
      </trkpt>
      <trkpt lat="46.803503343835473" lon="15.94864203594625">
        <ele>355.344482421875</ele>
        <time>2011-11-13T13:35:50Z</time>
      </trkpt>
      <trkpt lat="46.803473588079214" lon="15.948442295193672">
        <ele>352.941162109375</ele>
        <time>2011-11-13T13:36:29Z</time>
      </trkpt>
      <trkpt lat="46.803442575037479" lon="15.948332156985998">
        <ele>350.0572509765625</ele>
        <time>2011-11-13T13:36:44Z</time>
      </trkpt>
      <trkpt lat="46.803410639986396" lon="15.948199555277824">
        <ele>347.6539306640625</ele>
        <time>2011-11-13T13:36:59Z</time>
      </trkpt>
      <trkpt lat="46.803384823724627" lon="15.948069635778666">
        <ele>345.2506103515625</ele>
        <time>2011-11-13T13:37:19Z</time>
      </trkpt>
      <trkpt lat="46.803362024948001" lon="15.947973076254129">
        <ele>341.885986328125</ele>
        <time>2011-11-13T13:37:30Z</time>
      </trkpt>
      <trkpt lat="46.803359845653176" lon="15.947963772341609">
        <ele>341.885986328125</ele>
        <time>2011-11-13T13:37:31Z</time>
      </trkpt>
      <trkpt lat="46.803296646103263" lon="15.947719020769">
        <ele>339.482666015625</ele>
        <time>2011-11-13T13:37:54Z</time>
      </trkpt>
      <trkpt lat="46.80324031971395" lon="15.947492960840464">
        <ele>338.040771484375</ele>
        <time>2011-11-13T13:38:13Z</time>
      </trkpt>
      <trkpt lat="46.803175024688244" lon="15.947337225079536">
        <ele>334.6761474609375</ele>
        <time>2011-11-13T13:38:29Z</time>
      </trkpt>
      <trkpt lat="46.803139736875892" lon="15.94732859171927">
        <ele>335.15673828125</ele>
        <time>2011-11-13T13:38:34Z</time>
      </trkpt>
      <trkpt lat="46.802995735779405" lon="15.947436382994056">
        <ele>335.6373291015625</ele>
        <time>2011-11-13T13:38:53Z</time>
      </trkpt>
      <trkpt lat="46.802866654470563" lon="15.947593376040459">
        <ele>336.1181640625</ele>
        <time>2011-11-13T13:39:12Z</time>
      </trkpt>
      <trkpt lat="46.802765484899282" lon="15.947752883657813">
        <ele>336.598876953125</ele>
        <time>2011-11-13T13:39:29Z</time>
      </trkpt>
      <trkpt lat="46.802708068862557" lon="15.947891687974334">
        <ele>336.1181640625</ele>
        <time>2011-11-13T13:39:43Z</time>
      </trkpt>
      <trkpt lat="46.802642354741693" lon="15.947993695735931">
        <ele>336.1181640625</ele>
        <time>2011-11-13T13:39:58Z</time>
      </trkpt>
      <trkpt lat="46.802521990612149" lon="15.948175163939595">
        <ele>336.1181640625</ele>
        <time>2011-11-13T13:40:18Z</time>
      </trkpt>
      <trkpt lat="46.802470525726676" lon="15.948199555277824">
        <ele>335.6373291015625</ele>
        <time>2011-11-13T13:40:34Z</time>
      </trkpt>
      <trkpt lat="46.802418641746044" lon="15.948268789798021">
        <ele>335.15673828125</ele>
        <time>2011-11-13T13:40:49Z</time>
      </trkpt>
      <trkpt lat="46.802334571257234" lon="15.948351854458451">
        <ele>334.6761474609375</ele>
        <time>2011-11-13T13:41:07Z</time>
      </trkpt>
      <trkpt lat="46.802214458584785" lon="15.948516139760613">
        <ele>332.2728271484375</ele>
        <time>2011-11-13T13:41:29Z</time>
      </trkpt>
      <trkpt lat="46.802096525207162" lon="15.948737757280469">
        <ele>329.388916015625</ele>
        <time>2011-11-13T13:41:47Z</time>
      </trkpt>
      <trkpt lat="46.801968449726701" lon="15.948847141116858">
        <ele>328.4276123046875</ele>
        <time>2011-11-13T13:42:06Z</time>
      </trkpt>
      <trkpt lat="46.801863927394152" lon="15.948952082544565">
        <ele>326.5048828125</ele>
        <time>2011-11-13T13:42:26Z</time>
      </trkpt>
      <trkpt lat="46.801720429211855" lon="15.949248131364584">
        <ele>328.9083251953125</ele>
        <time>2011-11-13T13:42:48Z</time>
      </trkpt>
      <trkpt lat="46.801623282954097" lon="15.949520291760564">
        <ele>331.3115234375</ele>
        <time>2011-11-13T13:43:10Z</time>
      </trkpt>
      <trkpt lat="46.801545834168792" lon="15.949608888477087">
        <ele>332.2728271484375</ele>
        <time>2011-11-13T13:43:31Z</time>
      </trkpt>
      <trkpt lat="46.801376855000854" lon="15.94979957677424">
        <ele>332.2728271484375</ele>
        <time>2011-11-13T13:43:50Z</time>
      </trkpt>
      <trkpt lat="46.801199074834585" lon="15.950048016384244">
        <ele>330.8309326171875</ele>
        <time>2011-11-13T13:44:14Z</time>
      </trkpt>
      <trkpt lat="46.801115591078997" lon="15.950267538428307">
        <ele>330.3502197265625</ele>
        <time>2011-11-13T13:44:37Z</time>
      </trkpt>
      <trkpt lat="46.801075274124742" lon="15.950433667749166">
        <ele>330.8309326171875</ele>
        <time>2011-11-13T13:45:10Z</time>
      </trkpt>
      <trkpt lat="46.801128750666976" lon="15.950784031301737">
        <ele>329.8695068359375</ele>
        <time>2011-11-13T13:45:33Z</time>
      </trkpt>
      <trkpt lat="46.801177533343434" lon="15.950924260541797">
        <ele>327.94677734375</ele>
        <time>2011-11-13T13:45:45Z</time>
      </trkpt>
      <trkpt lat="46.801058929413557" lon="15.951241934671998">
        <ele>326.5048828125</ele>
        <time>2011-11-13T13:46:08Z</time>
      </trkpt>
      <trkpt lat="46.800863966345787" lon="15.951556675136089">
        <ele>326.5048828125</ele>
        <time>2011-11-13T13:46:34Z</time>
      </trkpt>
      <trkpt lat="46.800685683265328" lon="15.95190997235477">
        <ele>326.024169921875</ele>
        <time>2011-11-13T13:46:58Z</time>
      </trkpt>
      <trkpt lat="46.800509244203568" lon="15.952162686735392">
        <ele>326.024169921875</ele>
        <time>2011-11-13T13:47:19Z</time>
      </trkpt>
      <trkpt lat="46.800283268094063" lon="15.952309453859925">
        <ele>326.024169921875</ele>
        <time>2011-11-13T13:47:41Z</time>
      </trkpt>
      <trkpt lat="46.800015969201922" lon="15.952442474663258">
        <ele>324.1015625</ele>
        <time>2011-11-13T13:48:03Z</time>
      </trkpt>
      <trkpt lat="46.799838691949844" lon="15.952517492696643">
        <ele>321.2177734375</ele>
        <time>2011-11-13T13:48:20Z</time>
      </trkpt>
      <trkpt lat="46.799629479646683" lon="15.952617740258574">
        <ele>317.85302734375</ele>
        <time>2011-11-13T13:48:41Z</time>
      </trkpt>
      <trkpt lat="46.799460919573903" lon="15.952709270641208">
        <ele>314.9691162109375</ele>
        <time>2011-11-13T13:48:59Z</time>
      </trkpt>
      <trkpt lat="46.799328317865729" lon="15.952786048874259">
        <ele>312.5657958984375</ele>
        <time>2011-11-13T13:49:19Z</time>
      </trkpt>
      <trkpt lat="46.799218179658055" lon="15.952845644205809">
        <ele>309.681884765625</ele>
        <time>2011-11-13T13:49:34Z</time>
      </trkpt>
      <trkpt lat="46.799055486917496" lon="15.952947232872248">
        <ele>305.836669921875</ele>
        <time>2011-11-13T13:49:49Z</time>
      </trkpt>
      <trkpt lat="46.799044255167246" lon="15.952953770756721">
        <ele>305.836669921875</ele>
        <time>2011-11-13T13:49:50Z</time>
      </trkpt>
      <trkpt lat="46.798801431432366" lon="15.953044379130006">
        <ele>302.9525146484375</ele>
        <time>2011-11-13T13:50:12Z</time>
      </trkpt>
      <trkpt lat="46.798644857481122" lon="15.952923763543367">
        <ele>299.5880126953125</ele>
        <time>2011-11-13T13:50:27Z</time>
      </trkpt>
      <trkpt lat="46.79846347309649" lon="15.952637689188123">
        <ele>296.7041015625</ele>
        <time>2011-11-13T13:50:51Z</time>
      </trkpt>
      <trkpt lat="46.79843807592988" lon="15.952584547922015">
        <ele>296.2235107421875</ele>
        <time>2011-11-13T13:51:12Z</time>
      </trkpt>
      <trkpt lat="46.798426927998662" lon="15.952566275373101">
        <ele>296.2235107421875</ele>
        <time>2011-11-13T13:51:29Z</time>
      </trkpt>
      <trkpt lat="46.798348557204008" lon="15.952657051384449">
        <ele>293.33935546875</ele>
        <time>2011-11-13T13:51:43Z</time>
      </trkpt>
      <trkpt lat="46.798261553049088" lon="15.952787725254893">
        <ele>291.8974609375</ele>
        <time>2011-11-13T13:51:56Z</time>
      </trkpt>
      <trkpt lat="46.798170693218708" lon="15.952896773815155">
        <ele>290.45556640625</ele>
        <time>2011-11-13T13:52:09Z</time>
      </trkpt>
      <trkpt lat="46.797990063205361" lon="15.953061059117317">
        <ele>287.5714111328125</ele>
        <time>2011-11-13T13:52:26Z</time>
      </trkpt>
      <trkpt lat="46.79785268381238" lon="15.953174969181418">
        <ele>284.2069091796875</ele>
        <time>2011-11-13T13:52:41Z</time>
      </trkpt>
      <trkpt lat="46.797664174810052" lon="15.953242862597108">
        <ele>282.2843017578125</ele>
        <time>2011-11-13T13:53:01Z</time>
      </trkpt>
      <trkpt lat="46.797485891729593" lon="15.953262140974402">
        <ele>279.880859375</ele>
        <time>2011-11-13T13:53:18Z</time>
      </trkpt>
      <trkpt lat="46.797368545085192" lon="15.953267170116305">
        <ele>279.880859375</ele>
        <time>2011-11-13T13:53:28Z</time>
      </trkpt>
      <trkpt lat="46.797166289761662" lon="15.953323999419808">
        <ele>280.8424072265625</ele>
        <time>2011-11-13T13:53:48Z</time>
      </trkpt>
      <trkpt lat="46.797111891210079" lon="15.953369932249188">
        <ele>279.880859375</ele>
        <time>2011-11-13T13:53:54Z</time>
      </trkpt>
      <trkpt lat="46.796992029994726" lon="15.953543018549681">
        <ele>278.43896484375</ele>
        <time>2011-11-13T13:54:10Z</time>
      </trkpt>
      <trkpt lat="46.796813076362014" lon="15.953288460150361">
        <ele>276.9970703125</ele>
        <time>2011-11-13T13:54:31Z</time>
      </trkpt>
      <trkpt lat="46.796545358374715" lon="15.95297958701849">
        <ele>276.03564453125</ele>
        <time>2011-11-13T13:55:00Z</time>
      </trkpt>
      <trkpt lat="46.796312425285578" lon="15.953059047460556">
        <ele>275.074462890625</ele>
        <time>2011-11-13T13:55:23Z</time>
      </trkpt>
      <trkpt lat="46.796294571831822" lon="15.953046139329672">
        <ele>275.074462890625</ele>
        <time>2011-11-13T13:55:28Z</time>
      </trkpt>
      <trkpt lat="46.796185690909624" lon="15.952990148216486">
        <ele>274.113037109375</ele>
        <time>2011-11-13T13:55:45Z</time>
      </trkpt>
      <trkpt lat="46.796131879091263" lon="15.952918566763401">
        <ele>274.113037109375</ele>
        <time>2011-11-13T13:56:00Z</time>
      </trkpt>
      <trkpt lat="46.796135231852531" lon="15.952917644754052">
        <ele>274.59375</ele>
        <time>2011-11-13T13:56:14Z</time>
      </trkpt>
      <trkpt lat="46.796072535216808" lon="15.953157031908631">
        <ele>274.59375</ele>
        <time>2011-11-13T13:56:32Z</time>
      </trkpt>
      <trkpt lat="46.796015035361052" lon="15.95320975407958">
        <ele>274.113037109375</ele>
        <time>2011-11-13T13:56:38Z</time>
      </trkpt>
      <trkpt lat="46.795726362615824" lon="15.953344786539674">
        <ele>271.2291259765625</ele>
        <time>2011-11-13T13:57:03Z</time>
      </trkpt>
      <trkpt lat="46.795471385121346" lon="15.953469425439835">
        <ele>267.864501953125</ele>
        <time>2011-11-13T13:57:26Z</time>
      </trkpt>
      <trkpt lat="46.795257646590471" lon="15.953566739335656">
        <ele>265.94189453125</ele>
        <time>2011-11-13T13:57:49Z</time>
      </trkpt>
      <trkpt lat="46.795157231390476" lon="15.95362264662981">
        <ele>264.4998779296875</ele>
        <time>2011-11-13T13:58:03Z</time>
      </trkpt>
      <trkpt lat="46.794920274987817" lon="15.953742591664195">
        <ele>261.13525390625</ele>
        <time>2011-11-13T13:58:24Z</time>
      </trkpt>
      <trkpt lat="46.794840898364782" lon="15.953781064599752">
        <ele>260.654541015625</ele>
        <time>2011-11-13T13:58:40Z</time>
      </trkpt>
      <trkpt lat="46.794764371588826" lon="15.953811658546329">
        <ele>260.1739501953125</ele>
        <time>2011-11-13T13:58:56Z</time>
      </trkpt>
      <trkpt lat="46.794651551172137" lon="15.953872930258512">
        <ele>258.73193359375</ele>
        <time>2011-11-13T13:59:14Z</time>
      </trkpt>
      <trkpt lat="46.794353323057294" lon="15.954013494774699">
        <ele>256.809326171875</ele>
        <time>2011-11-13T13:59:39Z</time>
      </trkpt>
      <trkpt lat="46.793980831280351" lon="15.954196052625775">
        <ele>255.3673095703125</ele>
        <time>2011-11-13T14:00:10Z</time>
      </trkpt>
      <trkpt lat="46.793617140501738" lon="15.954376934096217">
        <ele>254.8865966796875</ele>
        <time>2011-11-13T14:00:41Z</time>
      </trkpt>
      <trkpt lat="46.793296784162521" lon="15.954523952677846">
        <ele>254.8865966796875</ele>
        <time>2011-11-13T14:01:08Z</time>
      </trkpt>
      <trkpt lat="46.793035352602601" lon="15.954336784780025">
        <ele>254.406005859375</ele>
        <time>2011-11-13T14:01:32Z</time>
      </trkpt>
      <trkpt lat="46.792810633778572" lon="15.954053224995732">
        <ele>253.9254150390625</ele>
        <time>2011-11-13T14:01:57Z</time>
      </trkpt>
      <trkpt lat="46.792775932699442" lon="15.954081974923611">
        <ele>254.406005859375</ele>
        <time>2011-11-13T14:02:03Z</time>
      </trkpt>
      <trkpt lat="46.792689682915807" lon="15.954250367358327">
        <ele>254.406005859375</ele>
        <time>2011-11-13T14:02:21Z</time>
      </trkpt>
      <trkpt lat="46.79259555414319" lon="15.954424794763327">
        <ele>255.8480224609375</ele>
        <time>2011-11-13T14:02:38Z</time>
      </trkpt>
      <trkpt lat="46.792446440085769" lon="15.954689495265484">
        <ele>257.770751953125</ele>
        <time>2011-11-13T14:03:00Z</time>
      </trkpt>
      <trkpt lat="46.792297242209315" lon="15.954712796956301">
        <ele>259.693359375</ele>
        <time>2011-11-13T14:03:20Z</time>
      </trkpt>
      <trkpt lat="46.792203783988953" lon="15.954716736450791">
        <ele>260.654541015625</ele>
        <time>2011-11-13T14:03:36Z</time>
      </trkpt>
      <trkpt lat="46.792052742093801" lon="15.954776164144278">
        <ele>263.53857421875</ele>
        <time>2011-11-13T14:03:52Z</time>
      </trkpt>
      <trkpt lat="46.791938077658415" lon="15.954874148592353">
        <ele>266.4224853515625</ele>
        <time>2011-11-13T14:04:07Z</time>
      </trkpt>
      <trkpt lat="46.791869597509503" lon="15.955013036727905">
        <ele>267.864501953125</ele>
        <time>2011-11-13T14:04:22Z</time>
      </trkpt>
      <trkpt lat="46.791841685771942" lon="15.955076990649104">
        <ele>268.3450927734375</ele>
        <time>2011-11-13T14:04:27Z</time>
      </trkpt>
      <trkpt lat="46.791819892823696" lon="15.955388965085149">
        <ele>268.3450927734375</ele>
        <time>2011-11-13T14:04:48Z</time>
      </trkpt>
      <trkpt lat="46.791698690503836" lon="15.955596333369613">
        <ele>267.864501953125</ele>
        <time>2011-11-13T14:05:06Z</time>
      </trkpt>
      <trkpt lat="46.791475061327219" lon="15.955625753849745">
        <ele>269.3065185546875</ele>
        <time>2011-11-13T14:05:27Z</time>
      </trkpt>
      <trkpt lat="46.791234835982323" lon="15.955458786338568">
        <ele>270.7484130859375</ele>
        <time>2011-11-13T14:05:50Z</time>
      </trkpt>
      <trkpt lat="46.791003327816725" lon="15.955291818827391">
        <ele>273.15185546875</ele>
        <time>2011-11-13T14:06:13Z</time>
      </trkpt>
      <trkpt lat="46.790823535993695" lon="15.95514228567481">
        <ele>273.6324462890625</ele>
        <time>2011-11-13T14:06:33Z</time>
      </trkpt>
      <trkpt lat="46.790639720857143" lon="15.954943634569645">
        <ele>275.5550537109375</ele>
        <time>2011-11-13T14:06:56Z</time>
      </trkpt>
      <trkpt lat="46.790662435814738" lon="15.954890493303537">
        <ele>276.516357421875</ele>
        <time>2011-11-13T14:07:11Z</time>
      </trkpt>
      <trkpt lat="46.790719432756305" lon="15.954828131943941">
        <ele>276.9970703125</ele>
        <time>2011-11-13T14:07:30Z</time>
      </trkpt>
      <trkpt lat="46.790658999234438" lon="15.95475671812892">
        <ele>276.516357421875</ele>
        <time>2011-11-13T14:07:41Z</time>
      </trkpt>
      <trkpt lat="46.790658999234438" lon="15.954741379246116">
        <ele>276.9970703125</ele>
        <time>2011-11-13T14:07:42Z</time>
      </trkpt>
      <trkpt lat="46.79058875888586" lon="15.95463115721941">
        <ele>276.9970703125</ele>
        <time>2011-11-13T14:07:53Z</time>
      </trkpt>
      <trkpt lat="46.79071188904345" lon="15.954716820269823">
        <ele>276.9970703125</ele>
        <time>2011-11-13T14:08:08Z</time>
      </trkpt>
      <trkpt lat="46.790618598461151" lon="15.954794939607382">
        <ele>276.9970703125</ele>
        <time>2011-11-13T14:08:25Z</time>
      </trkpt>
      <trkpt lat="46.790609126910567" lon="15.954796364530921">
        <ele>276.9970703125</ele>
        <time>2011-11-13T14:08:26Z</time>
      </trkpt>
      <trkpt lat="46.790564619004726" lon="15.95479242503643">
        <ele>276.9970703125</ele>
        <time>2011-11-13T14:08:30Z</time>
      </trkpt>
      <trkpt lat="46.790358256548643" lon="15.954684298485518">
        <ele>277.958251953125</ele>
        <time>2011-11-13T14:08:50Z</time>
      </trkpt>
      <trkpt lat="46.790245519950986" lon="15.954540632665157">
        <ele>278.919677734375</ele>
        <time>2011-11-13T14:09:04Z</time>
      </trkpt>
      <trkpt lat="46.790087521076202" lon="15.954394368454814">
        <ele>278.919677734375</ele>
        <time>2011-11-13T14:09:24Z</time>
      </trkpt>
      <trkpt lat="46.789999091997743" lon="15.954327061772346">
        <ele>279.880859375</ele>
        <time>2011-11-13T14:09:39Z</time>
      </trkpt>
      <trkpt lat="46.789923487231135" lon="15.954223293811083">
        <ele>279.880859375</ele>
        <time>2011-11-13T14:09:54Z</time>
      </trkpt>
      <trkpt lat="46.789743024855852" lon="15.954086165875196">
        <ele>281.322998046875</ele>
        <time>2011-11-13T14:10:17Z</time>
      </trkpt>
      <trkpt lat="46.789670437574387" lon="15.95406923443079">
        <ele>281.8035888671875</ele>
        <time>2011-11-13T14:10:30Z</time>
      </trkpt>
      <trkpt lat="46.789670856669545" lon="15.954053895547986">
        <ele>281.8035888671875</ele>
        <time>2011-11-13T14:10:34Z</time>
      </trkpt>
      <trkpt lat="46.78947907872498" lon="15.9538459405303">
        <ele>283.24560546875</ele>
        <time>2011-11-13T14:10:55Z</time>
      </trkpt>
      <trkpt lat="46.789301633834839" lon="15.953528685495257">
        <ele>283.7261962890625</ele>
        <time>2011-11-13T14:11:21Z</time>
      </trkpt>
      <trkpt lat="46.789204152300954" lon="15.953394826501608">
        <ele>284.2069091796875</ele>
        <time>2011-11-13T14:11:35Z</time>
      </trkpt>
      <trkpt lat="46.789161153137684" lon="15.953325340524316">
        <ele>284.2069091796875</ele>
        <time>2011-11-13T14:11:50Z</time>
      </trkpt>
      <trkpt lat="46.789106754586101" lon="15.953192822635174">
        <ele>284.2069091796875</ele>
        <time>2011-11-13T14:12:07Z</time>
      </trkpt>
      <trkpt lat="46.789101054891944" lon="15.953166084364057">
        <ele>284.2069091796875</ele>
        <time>2011-11-13T14:13:00Z</time>
      </trkpt>
      <trkpt lat="46.78901044651866" lon="15.952829970046878">
        <ele>284.6876220703125</ele>
        <time>2011-11-13T14:13:21Z</time>
      </trkpt>
      <trkpt lat="46.788943223655224" lon="15.952500561252236">
        <ele>286.6102294921875</ele>
        <time>2011-11-13T14:13:43Z</time>
      </trkpt>
      <trkpt lat="46.788814142346382" lon="15.952258994802833">
        <ele>289.0135498046875</ele>
        <time>2011-11-13T14:14:05Z</time>
      </trkpt>
      <trkpt lat="46.788740549236536" lon="15.952147347852588">
        <ele>290.45556640625</ele>
        <time>2011-11-13T14:14:22Z</time>
      </trkpt>
      <trkpt lat="46.78866209462285" lon="15.952031845226884">
        <ele>291.8974609375</ele>
        <time>2011-11-13T14:14:37Z</time>
      </trkpt>
      <trkpt lat="46.788602583110332" lon="15.951943499967456">
        <ele>292.378173828125</ele>
        <time>2011-11-13T14:14:52Z</time>
      </trkpt>
      <trkpt lat="46.788534689694643" lon="15.951894130557775">
        <ele>293.33935546875</ele>
        <time>2011-11-13T14:15:05Z</time>
      </trkpt>
      <trkpt lat="46.788431173190475" lon="15.951829673722386">
        <ele>294.30078125</ele>
        <time>2011-11-13T14:15:17Z</time>
      </trkpt>
      <trkpt lat="46.788242496550083" lon="15.951894884929061">
        <ele>296.7041015625</ele>
        <time>2011-11-13T14:15:38Z</time>
      </trkpt>
      <trkpt lat="46.788059435784817" lon="15.951965963467956">
        <ele>298.1461181640625</ele>
        <time>2011-11-13T14:15:58Z</time>
      </trkpt>
      <trkpt lat="46.78786363452673" lon="15.951982391998172">
        <ele>301.0299072265625</ele>
        <time>2011-11-13T14:16:19Z</time>
      </trkpt>
      <trkpt lat="46.78767847828567" lon="15.952014662325382">
        <ele>303.9139404296875</ele>
        <time>2011-11-13T14:16:40Z</time>
      </trkpt>
      <trkpt lat="46.787600945681334" lon="15.952050620689988">
        <ele>304.875244140625</ele>
        <time>2011-11-13T14:16:49Z</time>
      </trkpt>
      <trkpt lat="46.787419728934765" lon="15.952190179377794">
        <ele>307.75927734375</ele>
        <time>2011-11-13T14:17:11Z</time>
      </trkpt>
      <trkpt lat="46.787351164966822" lon="15.952217923477292">
        <ele>308.2398681640625</ele>
        <time>2011-11-13T14:17:27Z</time>
      </trkpt>
      <trkpt lat="46.787343621253967" lon="15.952224964275956">
        <ele>309.201171875</ele>
        <time>2011-11-13T14:17:54Z</time>
      </trkpt>
      <trkpt lat="46.787276398390532" lon="15.952274668961763">
        <ele>309.681884765625</ele>
        <time>2011-11-13T14:18:14Z</time>
      </trkpt>
      <trkpt lat="46.787131475284696" lon="15.952195376157761">
        <ele>312.5657958984375</ele>
        <time>2011-11-13T14:18:32Z</time>
      </trkpt>
      <trkpt lat="46.787039190530777" lon="15.952104767784476">
        <ele>313.0465087890625</ele>
        <time>2011-11-13T14:18:47Z</time>
      </trkpt>
      <trkpt lat="46.787029383704066" lon="15.952140977606177">
        <ele>313.5272216796875</ele>
        <time>2011-11-13T14:18:50Z</time>
      </trkpt>
      <trkpt lat="46.787041369825602" lon="15.952219851315022">
        <ele>314.0078125</ele>
        <time>2011-11-13T14:18:56Z</time>
      </trkpt>
      <trkpt lat="46.787124518305063" lon="15.952553451061249">
        <ele>313.5272216796875</ele>
        <time>2011-11-13T14:19:19Z</time>
      </trkpt>
      <trkpt lat="46.787108676508069" lon="15.952704325318336">
        <ele>314.4884033203125</ele>
        <time>2011-11-13T14:19:31Z</time>
      </trkpt>
      <trkpt lat="46.787036256864667" lon="15.952836675569415">
        <ele>316.8917236328125</ele>
        <time>2011-11-13T14:19:49Z</time>
      </trkpt>
      <trkpt lat="46.78696065209806" lon="15.952965253964067">
        <ele>319.2950439453125</ele>
        <time>2011-11-13T14:20:06Z</time>
      </trkpt>
      <trkpt lat="46.786881694570184" lon="15.953055191785097">
        <ele>322.178955078125</ele>
        <time>2011-11-13T14:20:23Z</time>
      </trkpt>
      <trkpt lat="46.786838779225945" lon="15.95313741825521">
        <ele>323.140380859375</ele>
        <time>2011-11-13T14:20:38Z</time>
      </trkpt>
      <trkpt lat="46.786791421473026" lon="15.953251160681248">
        <ele>326.985595703125</ele>
        <time>2011-11-13T14:20:53Z</time>
      </trkpt>
      <trkpt lat="46.786715732887387" lon="15.95339197665453">
        <ele>329.388916015625</ele>
        <time>2011-11-13T14:21:14Z</time>
      </trkpt>
      <trkpt lat="46.786661166697741" lon="15.953518794849515">
        <ele>332.2728271484375</ele>
        <time>2011-11-13T14:21:28Z</time>
      </trkpt>
      <trkpt lat="46.786586567759514" lon="15.953639661893249">
        <ele>334.6761474609375</ele>
        <time>2011-11-13T14:21:48Z</time>
      </trkpt>
      <trkpt lat="46.786467544734478" lon="15.95375457778573">
        <ele>337.0794677734375</ele>
        <time>2011-11-13T14:22:07Z</time>
      </trkpt>
      <trkpt lat="46.786363776773214" lon="15.953783327713609">
        <ele>338.521484375</ele>
        <time>2011-11-13T14:22:25Z</time>
      </trkpt>
      <trkpt lat="46.786279622465372" lon="15.953732533380389">
        <ele>339.0020751953125</ele>
        <time>2011-11-13T14:22:41Z</time>
      </trkpt>
      <trkpt lat="46.786176525056362" lon="15.953654246404767">
        <ele>339.482666015625</ele>
        <time>2011-11-13T14:22:58Z</time>
      </trkpt>
      <trkpt lat="46.786074684932828" lon="15.953599764034152">
        <ele>340.9246826171875</ele>
        <time>2011-11-13T14:23:20Z</time>
      </trkpt>
      <trkpt lat="46.785948621109128" lon="15.953548885881901">
        <ele>343.327880859375</ele>
        <time>2011-11-13T14:23:37Z</time>
      </trkpt>
      <trkpt lat="46.785827754065394" lon="15.953518124297261">
        <ele>346.2120361328125</ele>
        <time>2011-11-13T14:23:53Z</time>
      </trkpt>
      <trkpt lat="46.785651734098792" lon="15.953481746837497">
        <ele>347.1732177734375</ele>
        <time>2011-11-13T14:24:11Z</time>
      </trkpt>
      <trkpt lat="46.785583086311817" lon="15.953523488715291">
        <ele>347.1732177734375</ele>
        <time>2011-11-13T14:24:32Z</time>
      </trkpt>
      <trkpt lat="46.785574872046709" lon="15.953619293868542">
        <ele>347.1732177734375</ele>
        <time>2011-11-13T14:24:48Z</time>
      </trkpt>
      <trkpt lat="46.785616697743535" lon="15.953663969412446">
        <ele>349.0958251953125</ele>
        <time>2011-11-13T14:25:02Z</time>
      </trkpt>
      <trkpt lat="46.7856858484447" lon="15.953695653006434">
        <ele>348.1346435546875</ele>
        <time>2011-11-13T14:25:20Z</time>
      </trkpt>
      <trkpt lat="46.785795567557216" lon="15.953822135925293">
        <ele>347.6539306640625</ele>
        <time>2011-11-13T14:25:36Z</time>
      </trkpt>
      <trkpt lat="46.785893635824323" lon="15.953967729583383">
        <ele>349.0958251953125</ele>
        <time>2011-11-13T14:25:52Z</time>
      </trkpt>
      <trkpt lat="46.785962786525488" lon="15.954128578305244">
        <ele>351.0184326171875</ele>
        <time>2011-11-13T14:26:04Z</time>
      </trkpt>
      <trkpt lat="46.786031685769558" lon="15.954262437298894">
        <ele>351.9798583984375</ele>
        <time>2011-11-13T14:26:18Z</time>
      </trkpt>
      <trkpt lat="46.78606596775353" lon="15.954343574121594">
        <ele>352.4605712890625</ele>
        <time>2011-11-13T14:26:36Z</time>
      </trkpt>
      <trkpt lat="46.786006456241012" lon="15.954280877485871">
        <ele>351.0184326171875</ele>
        <time>2011-11-13T14:26:47Z</time>
      </trkpt>
      <trkpt lat="46.785841165110469" lon="15.954287499189377">
        <ele>351.9798583984375</ele>
        <time>2011-11-13T14:27:05Z</time>
      </trkpt>
      <trkpt lat="46.785744689404964" lon="15.95426076091826">
        <ele>353.421875</ele>
        <time>2011-11-13T14:27:23Z</time>
      </trkpt>
      <trkpt lat="46.785708731040359" lon="15.954274171963334">
        <ele>354.3831787109375</ele>
        <time>2011-11-13T14:27:44Z</time>
      </trkpt>
      <trkpt lat="46.785632623359561" lon="15.954379951581359">
        <ele>356.3057861328125</ele>
        <time>2011-11-13T14:28:18Z</time>
      </trkpt>
      <trkpt lat="46.785589540377259" lon="15.954427476972342">
        <ele>357.747802734375</ele>
        <time>2011-11-13T14:28:35Z</time>
      </trkpt>
      <trkpt lat="46.78554704412818" lon="15.954441390931606">
        <ele>357.747802734375</ele>
        <time>2011-11-13T14:28:52Z</time>
      </trkpt>
      <trkpt lat="46.78551091812551" lon="15.954339718446136">
        <ele>357.747802734375</ele>
        <time>2011-11-13T14:29:19Z</time>
      </trkpt>
      <trkpt lat="46.785482335835695" lon="15.954282972961664">
        <ele>354.86376953125</ele>
        <time>2011-11-13T14:29:31Z</time>
      </trkpt>
      <trkpt lat="46.785509996116161" lon="15.954164117574692">
        <ele>353.421875</ele>
        <time>2011-11-13T14:29:48Z</time>
      </trkpt>
      <trkpt lat="46.785500859841704" lon="15.95402279868722">
        <ele>352.4605712890625</ele>
        <time>2011-11-13T14:30:05Z</time>
      </trkpt>
      <trkpt lat="46.785489795729518" lon="15.95394903793931">
        <ele>350.0572509765625</ele>
        <time>2011-11-13T14:30:12Z</time>
      </trkpt>
      <trkpt lat="46.785438163205981" lon="15.953753823414445">
        <ele>348.1346435546875</ele>
        <time>2011-11-13T14:30:26Z</time>
      </trkpt>
      <trkpt lat="46.785449981689453" lon="15.95357964746654">
        <ele>349.0958251953125</ele>
        <time>2011-11-13T14:30:41Z</time>
      </trkpt>
      <trkpt lat="46.785471355542541" lon="15.9535195492208">
        <ele>348.615234375</ele>
        <time>2011-11-13T14:31:03Z</time>
      </trkpt>
      <trkpt lat="46.78541662171483" lon="15.953492894768715">
        <ele>349.0958251953125</ele>
        <time>2011-11-13T14:31:24Z</time>
      </trkpt>
      <trkpt lat="46.785328947007656" lon="15.953499348834157">
        <ele>349.5765380859375</ele>
        <time>2011-11-13T14:31:44Z</time>
      </trkpt>
      <trkpt lat="46.785335652530193" lon="15.953473281115294">
        <ele>349.0958251953125</ele>
        <time>2011-11-13T14:31:49Z</time>
      </trkpt>
      <trkpt lat="46.785376723855734" lon="15.953151499852538">
        <ele>347.6539306640625</ele>
        <time>2011-11-13T14:32:12Z</time>
      </trkpt>
      <trkpt lat="46.785409916192293" lon="15.953073380514979">
        <ele>347.1732177734375</ele>
        <time>2011-11-13T14:32:32Z</time>
      </trkpt>
      <trkpt lat="46.785379322245717" lon="15.953037925064564">
        <ele>346.692626953125</ele>
        <time>2011-11-13T14:32:47Z</time>
      </trkpt>
      <trkpt lat="46.785342022776604" lon="15.953028621152043">
        <ele>346.692626953125</ele>
        <time>2011-11-13T14:33:10Z</time>
      </trkpt>
      <trkpt lat="46.785406982526183" lon="15.953111350536346">
        <ele>347.6539306640625</ele>
        <time>2011-11-13T14:33:32Z</time>
      </trkpt>
      <trkpt lat="46.785362726077437" lon="15.953406980261207">
        <ele>347.1732177734375</ele>
        <time>2011-11-13T14:33:53Z</time>
      </trkpt>
      <trkpt lat="46.785313775762916" lon="15.953528517857194">
        <ele>348.1346435546875</ele>
        <time>2011-11-13T14:34:09Z</time>
      </trkpt>
      <trkpt lat="46.785263484343886" lon="15.953504629433155">
        <ele>348.615234375</ele>
        <time>2011-11-13T14:34:24Z</time>
      </trkpt>
      <trkpt lat="46.785149490460753" lon="15.953517537564039">
        <ele>351.4991455078125</ele>
        <time>2011-11-13T14:34:39Z</time>
      </trkpt>
      <trkpt lat="46.785029042512178" lon="15.953518794849515">
        <ele>352.941162109375</ele>
        <time>2011-11-13T14:34:56Z</time>
      </trkpt>
      <trkpt lat="46.784867020323873" lon="15.953515777364373">
        <ele>355.344482421875</ele>
        <time>2011-11-13T14:35:17Z</time>
      </trkpt>
      <trkpt lat="46.784743135794997" lon="15.953498091548681">
        <ele>358.708984375</ele>
        <time>2011-11-13T14:35:31Z</time>
      </trkpt>
      <trkpt lat="46.784583376720548" lon="15.953467078506947">
        <ele>361.5931396484375</ele>
        <time>2011-11-13T14:35:49Z</time>
      </trkpt>
      <trkpt lat="46.784453289583325" lon="15.953405471518636">
        <ele>363.996337890625</ele>
        <time>2011-11-13T14:36:06Z</time>
      </trkpt>
      <trkpt lat="46.784372823312879" lon="15.95339641906321">
        <ele>364.4769287109375</ele>
        <time>2011-11-13T14:36:22Z</time>
      </trkpt>
      <trkpt lat="46.784257655963302" lon="15.953356437385082">
        <ele>366.3995361328125</ele>
        <time>2011-11-13T14:36:41Z</time>
      </trkpt>
      <trkpt lat="46.784141231328249" lon="15.953296171501279">
        <ele>367.3609619140625</ele>
        <time>2011-11-13T14:37:00Z</time>
      </trkpt>
      <trkpt lat="46.784032937139273" lon="15.953189134597778">
        <ele>366.3995361328125</ele>
        <time>2011-11-13T14:37:15Z</time>
      </trkpt>
      <trkpt lat="46.783985830843449" lon="15.953104058280587">
        <ele>366.3995361328125</ele>
        <time>2011-11-13T14:37:36Z</time>
      </trkpt>
      <trkpt lat="46.783964121714234" lon="15.952964499592781">
        <ele>365.4383544921875</ele>
        <time>2011-11-13T14:37:52Z</time>
      </trkpt>
      <trkpt lat="46.783965630456805" lon="15.952644562348723">
        <ele>363.996337890625</ele>
        <time>2011-11-13T14:38:17Z</time>
      </trkpt>
      <trkpt lat="46.783976862207055" lon="15.952467452734709">
        <ele>361.1124267578125</ele>
        <time>2011-11-13T14:38:35Z</time>
      </trkpt>
      <trkpt lat="46.784053640440106" lon="15.952343316748738">
        <ele>359.67041015625</ele>
        <time>2011-11-13T14:38:52Z</time>
      </trkpt>
      <trkpt lat="46.783986166119576" lon="15.952317081391811">
        <ele>359.189697265625</ele>
        <time>2011-11-13T14:39:23Z</time>
      </trkpt>
      <trkpt lat="46.783966133370996" lon="15.952230328693986">
        <ele>362.07373046875</ele>
        <time>2011-11-13T14:39:40Z</time>
      </trkpt>
      <trkpt lat="46.783985495567322" lon="15.952235190197825">
        <ele>362.07373046875</ele>
        <time>2011-11-13T14:39:59Z</time>
      </trkpt>
      <trkpt lat="46.783990021795034" lon="15.952248349785805">
        <ele>361.1124267578125</ele>
        <time>2011-11-13T14:40:19Z</time>
      </trkpt>
      <trkpt lat="46.783982226625085" lon="15.952220689505339">
        <ele>361.1124267578125</ele>
        <time>2011-11-13T14:40:41Z</time>
      </trkpt>
      <trkpt lat="46.784000163897872" lon="15.952220186591148">
        <ele>361.1124267578125</ele>
        <time>2011-11-13T14:41:15Z</time>
      </trkpt>
      <trkpt lat="46.783984825015068" lon="15.952244661748409">
        <ele>358.2283935546875</ele>
        <time>2011-11-13T14:41:31Z</time>
      </trkpt>
      <trkpt lat="46.783984489738941" lon="15.952248685061932">
        <ele>357.747802734375</ele>
        <time>2011-11-13T14:41:32Z</time>
      </trkpt>
      <trkpt lat="46.783969989046454" lon="15.952317416667938">
        <ele>358.708984375</ele>
        <time>2011-11-13T14:41:47Z</time>
      </trkpt>
      <trkpt lat="46.783967139199376" lon="15.952502740547061">
        <ele>361.5931396484375</ele>
        <time>2011-11-13T14:42:04Z</time>
      </trkpt>
      <trkpt lat="46.783956242725253" lon="15.952830472961068">
        <ele>363.996337890625</ele>
        <time>2011-11-13T14:42:29Z</time>
      </trkpt>
      <trkpt lat="46.78393897600472" lon="15.953136747702956">
        <ele>364.4769287109375</ele>
        <time>2011-11-13T14:42:54Z</time>
      </trkpt>
      <trkpt lat="46.783993626013398" lon="15.953160719946027">
        <ele>365.4383544921875</ele>
        <time>2011-11-13T14:43:09Z</time>
      </trkpt>
      <trkpt lat="46.783963283523917" lon="15.953254597261548">
        <ele>365.9189453125</ele>
        <time>2011-11-13T14:43:24Z</time>
      </trkpt>
      <trkpt lat="46.783879632130265" lon="15.953281335532665">
        <ele>363.5157470703125</ele>
        <time>2011-11-13T14:43:41Z</time>
      </trkpt>
      <trkpt lat="46.783785251900554" lon="15.95326934941113">
        <ele>362.07373046875</ele>
        <time>2011-11-13T14:44:00Z</time>
      </trkpt>
      <trkpt lat="46.783684669062495" lon="15.953262643888593">
        <ele>361.5931396484375</ele>
        <time>2011-11-13T14:44:13Z</time>
      </trkpt>
      <trkpt lat="46.783652566373348" lon="15.953262476250529">
        <ele>360.6317138671875</ele>
        <time>2011-11-13T14:44:16Z</time>
      </trkpt>
      <trkpt lat="46.78350118920207" lon="15.953251495957375">
        <ele>358.2283935546875</ele>
        <time>2011-11-13T14:44:32Z</time>
      </trkpt>
      <trkpt lat="46.783341933041811" lon="15.953220063820481">
        <ele>355.344482421875</ele>
        <time>2011-11-13T14:44:51Z</time>
      </trkpt>
      <trkpt lat="46.783385518938303" lon="15.953301368281245">
        <ele>355.344482421875</ele>
        <time>2011-11-13T14:45:12Z</time>
      </trkpt>
      <trkpt lat="46.78333698771894" lon="15.953268427401781">
        <ele>355.344482421875</ele>
        <time>2011-11-13T14:45:43Z</time>
      </trkpt>
      <trkpt lat="46.783387279137969" lon="15.9532674215734">
        <ele>354.3831787109375</ele>
        <time>2011-11-13T14:46:18Z</time>
      </trkpt>
      <trkpt lat="46.78326222114265" lon="15.953166922554374">
        <ele>353.421875</ele>
        <time>2011-11-13T14:46:34Z</time>
      </trkpt>
      <trkpt lat="46.783192986622453" lon="15.95308318734169">
        <ele>353.421875</ele>
        <time>2011-11-13T14:46:53Z</time>
      </trkpt>
      <trkpt lat="46.783179240301251" lon="15.953082432970405">
        <ele>353.902587890625</ele>
        <time>2011-11-13T14:47:34Z</time>
      </trkpt>
      <trkpt lat="46.783135235309601" lon="15.95310908742249">
        <ele>354.86376953125</ele>
        <time>2011-11-13T14:48:10Z</time>
      </trkpt>
      <trkpt lat="46.783147724345326" lon="15.953079583123326">
        <ele>354.3831787109375</ele>
        <time>2011-11-13T14:48:33Z</time>
      </trkpt>
      <trkpt lat="46.783138923346996" lon="15.953005738556385">
        <ele>352.941162109375</ele>
        <time>2011-11-13T14:48:43Z</time>
      </trkpt>
      <trkpt lat="46.783121153712273" lon="15.952887637540698">
        <ele>349.5765380859375</ele>
        <time>2011-11-13T14:48:54Z</time>
      </trkpt>
      <trkpt lat="46.783078238368034" lon="15.952691165730357">
        <ele>347.1732177734375</ele>
        <time>2011-11-13T14:49:11Z</time>
      </trkpt>
      <trkpt lat="46.783075388520956" lon="15.952513972297311">
        <ele>343.80859375</ele>
        <time>2011-11-13T14:49:25Z</time>
      </trkpt>
      <trkpt lat="46.783118220046163" lon="15.952326469123363">
        <ele>341.4052734375</ele>
        <time>2011-11-13T14:49:41Z</time>
      </trkpt>
      <trkpt lat="46.783198434859514" lon="15.952072497457266">
        <ele>338.521484375</ele>
        <time>2011-11-13T14:50:00Z</time>
      </trkpt>
      <trkpt lat="46.783226262778044" lon="15.952011896297336">
        <ele>338.040771484375</ele>
        <time>2011-11-13T14:50:04Z</time>
      </trkpt>
      <trkpt lat="46.783345621079206" lon="15.951661616563797">
        <ele>336.598876953125</ele>
        <time>2011-11-13T14:50:26Z</time>
      </trkpt>
      <trkpt lat="46.783513342961669" lon="15.951315024867654">
        <ele>335.15673828125</ele>
        <time>2011-11-13T14:50:52Z</time>
      </trkpt>
      <trkpt lat="46.783572938293219" lon="15.951270936056972">
        <ele>335.15673828125</ele>
        <time>2011-11-13T14:51:09Z</time>
      </trkpt>
      <trkpt lat="46.783671090379357" lon="15.95126305706799">
        <ele>335.15673828125</ele>
        <time>2011-11-13T14:51:41Z</time>
      </trkpt>
      <trkpt lat="46.783692045137286" lon="15.951270684599876">
        <ele>334.6761474609375</ele>
        <time>2011-11-13T14:51:51Z</time>
      </trkpt>
      <trkpt lat="46.783933946862817" lon="15.951180579140782">
        <ele>334.1954345703125</ele>
        <time>2011-11-13T14:52:16Z</time>
      </trkpt>
      <trkpt lat="46.784040732309222" lon="15.951032051816583">
        <ele>330.8309326171875</ele>
        <time>2011-11-13T14:52:32Z</time>
      </trkpt>
      <trkpt lat="46.784084234386683" lon="15.950903641059995">
        <ele>327.94677734375</ele>
        <time>2011-11-13T14:52:56Z</time>
      </trkpt>
      <trkpt lat="46.784105189144611" lon="15.950647741556168">
        <ele>325.06298828125</ele>
        <time>2011-11-13T14:53:20Z</time>
      </trkpt>
      <trkpt lat="46.784096220508218" lon="15.950438026338816">
        <ele>322.178955078125</ele>
        <time>2011-11-13T14:53:35Z</time>
      </trkpt>
      <trkpt lat="46.78409974090755" lon="15.950261419638991">
        <ele>319.2950439453125</ele>
        <time>2011-11-13T14:53:49Z</time>
      </trkpt>
      <trkpt lat="46.78410854190588" lon="15.950215570628643">
        <ele>318.8143310546875</ele>
        <time>2011-11-13T14:54:05Z</time>
      </trkpt>
      <trkpt lat="46.784117929637432" lon="15.950097888708115">
        <ele>317.85302734375</ele>
        <time>2011-11-13T14:54:24Z</time>
      </trkpt>
      <trkpt lat="46.784181045368314" lon="15.950009291991591">
        <ele>316.4110107421875</ele>
        <time>2011-11-13T14:54:48Z</time>
      </trkpt>
      <trkpt lat="46.784462425857782" lon="15.950011471286416">
        <ele>313.5272216796875</ele>
        <time>2011-11-13T14:55:15Z</time>
      </trkpt>
      <trkpt lat="46.784654958173633" lon="15.949933268129826">
        <ele>310.64306640625</ele>
        <time>2011-11-13T14:55:35Z</time>
      </trkpt>
      <trkpt lat="46.784764677286148" lon="15.949796391651034">
        <ele>309.681884765625</ele>
        <time>2011-11-13T14:55:51Z</time>
      </trkpt>
      <trkpt lat="46.78476576693356" lon="15.949780298396945">
        <ele>309.201171875</ele>
        <time>2011-11-13T14:55:52Z</time>
      </trkpt>
      <trkpt lat="46.784833744168282" lon="15.949518699198961">
        <ele>306.7978515625</ele>
        <time>2011-11-13T14:56:11Z</time>
      </trkpt>
      <trkpt lat="46.784903230145574" lon="15.949267325922847">
        <ele>303.4332275390625</ele>
        <time>2011-11-13T14:56:30Z</time>
      </trkpt>
      <trkpt lat="46.784934578463435" lon="15.949132377281785">
        <ele>301.5106201171875</ele>
        <time>2011-11-13T14:56:40Z</time>
      </trkpt>
      <trkpt lat="46.785024264827371" lon="15.948844794183969">
        <ele>299.1072998046875</ele>
        <time>2011-11-13T14:57:01Z</time>
      </trkpt>
      <trkpt lat="46.785147394984961" lon="15.948727196082473">
        <ele>296.7041015625</ele>
        <time>2011-11-13T14:57:15Z</time>
      </trkpt>
      <trkpt lat="46.785234147682786" lon="15.948645388707519">
        <ele>295.261962890625</ele>
        <time>2011-11-13T14:57:24Z</time>
      </trkpt>
      <trkpt lat="46.78535015322268" lon="15.948419580236077">
        <ele>291.8974609375</ele>
        <time>2011-11-13T14:57:42Z</time>
      </trkpt>
      <trkpt lat="46.78544444963336" lon="15.948225371539593">
        <ele>289.974853515625</ele>
        <time>2011-11-13T14:58:00Z</time>
      </trkpt>
      <trkpt lat="46.785583170130849" lon="15.947930328547955">
        <ele>286.6102294921875</ele>
        <time>2011-11-13T14:58:21Z</time>
      </trkpt>
      <trkpt lat="46.785627929493785" lon="15.947846174240112">
        <ele>286.1295166015625</ele>
        <time>2011-11-13T14:58:27Z</time>
      </trkpt>
      <trkpt lat="46.785683585330844" lon="15.947731928899884">
        <ele>286.1295166015625</ele>
        <time>2011-11-13T14:58:35Z</time>
      </trkpt>
      <trkpt lat="46.785839824005961" lon="15.94744342379272">
        <ele>283.7261962890625</ele>
        <time>2011-11-13T14:59:01Z</time>
      </trkpt>
      <trkpt lat="46.785906124860048" lon="15.947289867326617">
        <ele>282.2843017578125</ele>
        <time>2011-11-13T14:59:16Z</time>
      </trkpt>
      <trkpt lat="46.786030260846019" lon="15.947046624496579">
        <ele>280.3616943359375</ele>
        <time>2011-11-13T14:59:37Z</time>
      </trkpt>
      <trkpt lat="46.786078037694097" lon="15.94698216766119">
        <ele>278.919677734375</ele>
        <time>2011-11-13T14:59:56Z</time>
      </trkpt>
      <trkpt lat="46.786136627197266" lon="15.946867419406772">
        <ele>277.4776611328125</ele>
        <time>2011-11-13T15:00:30Z</time>
      </trkpt>
      <trkpt lat="46.786205945536494" lon="15.946757784113288">
        <ele>276.516357421875</ele>
        <time>2011-11-13T15:01:03Z</time>
      </trkpt>
      <trkpt lat="46.786299739032984" lon="15.94650037586689">
        <ele>273.6324462890625</ele>
        <time>2011-11-13T15:01:22Z</time>
      </trkpt>
      <trkpt lat="46.786435274407268" lon="15.946247996762395">
        <ele>271.2291259765625</ele>
        <time>2011-11-13T15:01:44Z</time>
      </trkpt>
      <trkpt lat="46.786671476438642" lon="15.946282278746367">
        <ele>269.787109375</ele>
        <time>2011-11-13T15:02:04Z</time>
      </trkpt>
      <trkpt lat="46.786671727895737" lon="15.946188233792782">
        <ele>269.3065185546875</ele>
        <time>2011-11-13T15:02:16Z</time>
      </trkpt>
      <trkpt lat="46.786718834191561" lon="15.946015063673258">
        <ele>268.3450927734375</ele>
        <time>2011-11-13T15:02:28Z</time>
      </trkpt>
      <trkpt lat="46.786753619089723" lon="15.945982290431857">
        <ele>267.3839111328125</ele>
        <time>2011-11-13T15:02:32Z</time>
      </trkpt>
      <trkpt lat="46.786803575232625" lon="15.945911379531026">
        <ele>267.3839111328125</ele>
        <time>2011-11-13T15:02:48Z</time>
      </trkpt>
      <trkpt lat="46.786865182220936" lon="15.945842061191797">
        <ele>267.3839111328125</ele>
        <time>2011-11-13T15:03:14Z</time>
      </trkpt>
      <trkpt lat="46.786794690415263" lon="15.945792440325022">
        <ele>267.864501953125</ele>
        <time>2011-11-13T15:03:29Z</time>
      </trkpt>
      <trkpt lat="46.786783458665013" lon="15.945806438103318">
        <ele>267.864501953125</ele>
        <time>2011-11-13T15:03:56Z</time>
      </trkpt>
      <trkpt lat="46.786791337653995" lon="15.945864357054234">
        <ele>267.864501953125</ele>
        <time>2011-11-13T15:04:11Z</time>
      </trkpt>
      <trkpt lat="46.786807850003242" lon="15.945830997079611">
        <ele>267.864501953125</ele>
        <time>2011-11-13T15:04:13Z</time>
      </trkpt>
      <trkpt lat="46.786888316273689" lon="15.945710632950068">
        <ele>267.864501953125</ele>
        <time>2011-11-13T15:04:19Z</time>
      </trkpt>
      <trkpt lat="46.786907762289047" lon="15.94562815502286">
        <ele>267.864501953125</ele>
        <time>2011-11-13T15:04:22Z</time>
      </trkpt>
      <trkpt lat="46.78688052110374" lon="15.945671238005161">
        <ele>266.4224853515625</ele>
        <time>2011-11-13T15:04:32Z</time>
      </trkpt>
      <trkpt lat="46.786841964349151" lon="15.945739466696978">
        <ele>266.9031982421875</ele>
        <time>2011-11-13T15:04:35Z</time>
      </trkpt>
      <trkpt lat="46.786771640181541" lon="15.945816664025187">
        <ele>266.4224853515625</ele>
        <time>2011-11-13T15:04:43Z</time>
      </trkpt>
      <trkpt lat="46.78672126494348" lon="15.945902746170759">
        <ele>266.4224853515625</ele>
        <time>2011-11-13T15:04:50Z</time>
      </trkpt>
      <trkpt lat="46.786716151982546" lon="15.945963263511658">
        <ele>265.94189453125</ele>
        <time>2011-11-13T15:04:54Z</time>
      </trkpt>
      <trkpt lat="46.786638284102082" lon="15.945966364815831">
        <ele>267.3839111328125</ele>
        <time>2011-11-13T15:05:05Z</time>
      </trkpt>
      <trkpt lat="46.786533175036311" lon="15.945668388158083">
        <ele>265.94189453125</ele>
        <time>2011-11-13T15:05:25Z</time>
      </trkpt>
      <trkpt lat="46.786461845040321" lon="15.94546596519649">
        <ele>264.4998779296875</ele>
        <time>2011-11-13T15:05:42Z</time>
      </trkpt>
      <trkpt lat="46.786441896110773" lon="15.945412321016192">
        <ele>263.53857421875</ele>
        <time>2011-11-13T15:05:54Z</time>
      </trkpt>
    </trkseg>
  </trk>

</gpx>